<?xml version="1.0" encoding="UTF-8"?>
<gpx version="1.1" creator="2bulu-scraper" xmlns="http://www.topografix.com/GPX/1/1">
  <metadata><name>漏仓子（徒步）</name><desc>source: 2bulu.com trackId=83182189; exported 2026-09-01T19:15:21.442Z</desc>
    <bounds minlat="28.511667" minlon="105.129642" maxlat="28.518246" maxlon="105.136984"/>
    <link href="https://www.2bulu.com/track/t-jBV4Xhh8Dj%252Fp%252FR2KBg5Tzw%253D%253D.htm"><text>2bulu 源页面</text></link>
  </metadata>
  <wpt lat="28.512864" lon="105.132223"><ele>557</ele><name></name></wpt>
  <wpt lat="28.515674" lon="105.135723"><ele>625</ele><name></name></wpt>
  <wpt lat="28.515629" lon="105.135701"><ele>628</ele><name></name></wpt>
  <wpt lat="28.515629" lon="105.135701"><ele>628</ele><name></name></wpt>
  <wpt lat="28.515482" lon="105.13583"><ele>628</ele><name></name></wpt>
  <wpt lat="28.515482" lon="105.13583"><ele>628</ele><name></name></wpt>
  <wpt lat="28.515878" lon="105.136359"><ele>636</ele><name></name></wpt>
  <wpt lat="28.517914" lon="105.136618"><ele>675</ele><name></name></wpt>
  <wpt lat="28.517914" lon="105.136618"><ele>675</ele><name></name></wpt>
  <wpt lat="28.516377" lon="105.136716"><ele>659</ele><name></name></wpt>
  <wpt lat="28.515515" lon="105.1354"><ele>631</ele><name></name></wpt>
  <wpt lat="28.51547" lon="105.135416"><ele>629</ele><name></name></wpt>
  <wpt lat="28.515311" lon="105.135364"><ele>649</ele><name></name></wpt>
  <wpt lat="28.511906" lon="105.13561"><ele>669</ele><name></name></wpt>
  <wpt lat="28.512604" lon="105.135269"><ele>669</ele><name></name></wpt>
  <wpt lat="28.515587" lon="105.135669"><ele>629</ele><name></name></wpt>
  <trk><name>漏仓子（徒步）</name>
      <trkseg>
        <trkpt lat="28.513004" lon="105.13095"><ele>537.7294</ele><time>2026-04-25T20:49:20.000Z</time></trkpt>
        <trkpt lat="28.512968" lon="105.130987"><ele>538.58105</ele><time>2026-04-25T20:49:27.000Z</time></trkpt>
      </trkseg>
      <trkseg>
        <trkpt lat="28.513003" lon="105.131264"><ele>546.8068</ele><time>2026-04-25T20:51:06.000Z</time></trkpt>
        <trkpt lat="28.512996" lon="105.131316"><ele>546.3448</ele><time>2026-04-25T20:51:15.000Z</time></trkpt>
        <trkpt lat="28.513028" lon="105.131357"><ele>548.87616</ele><time>2026-04-25T20:51:24.000Z</time></trkpt>
        <trkpt lat="28.513068" lon="105.131399"><ele>549.1271</ele><time>2026-04-25T20:51:29.000Z</time></trkpt>
        <trkpt lat="28.51311" lon="105.131429"><ele>549.81256</ele><time>2026-04-25T20:51:36.000Z</time></trkpt>
      </trkseg>
      <trkseg>
        <trkpt lat="28.513159" lon="105.131549"><ele>550.3914</ele><time>2026-04-25T20:51:56.000Z</time></trkpt>
        <trkpt lat="28.51316" lon="105.131602"><ele>549.9111</ele><time>2026-04-25T20:52:01.000Z</time></trkpt>
        <trkpt lat="28.513146" lon="105.131652"><ele>550.8086</ele><time>2026-04-25T20:52:05.000Z</time></trkpt>
        <trkpt lat="28.51312" lon="105.131694"><ele>551.53314</ele><time>2026-04-25T20:52:11.000Z</time></trkpt>
        <trkpt lat="28.513099" lon="105.131743"><ele>551.3034</ele><time>2026-04-25T20:52:17.000Z</time></trkpt>
        <trkpt lat="28.513076" lon="105.131788"><ele>551.4714</ele><time>2026-04-25T20:52:23.000Z</time></trkpt>
        <trkpt lat="28.513044" lon="105.131829"><ele>553.41</ele><time>2026-04-25T20:52:28.000Z</time></trkpt>
        <trkpt lat="28.513018" lon="105.131886"><ele>554.4822</ele><time>2026-04-25T20:52:34.000Z</time></trkpt>
        <trkpt lat="28.513009" lon="105.131943"><ele>552.53894</ele><time>2026-04-25T20:52:42.000Z</time></trkpt>
        <trkpt lat="28.513001" lon="105.131998"><ele>555.42053</ele><time>2026-04-25T20:52:50.000Z</time></trkpt>
        <trkpt lat="28.512974" lon="105.13205"><ele>555.69446</ele><time>2026-04-25T20:52:56.000Z</time></trkpt>
        <trkpt lat="28.512929" lon="105.132083"><ele>555.9501</ele><time>2026-04-25T20:53:04.000Z</time></trkpt>
        <trkpt lat="28.512885" lon="105.132119"><ele>555.46423</ele><time>2026-04-25T20:53:10.000Z</time></trkpt>
        <trkpt lat="28.512864" lon="105.132168"><ele>555.93964</ele><time>2026-04-25T20:53:15.000Z</time></trkpt>
        <trkpt lat="28.512864" lon="105.132223"><ele>556.6633</ele><time>2026-04-25T20:53:20.000Z</time></trkpt>
        <trkpt lat="28.512909" lon="105.132235"><ele>559.35706</ele><time>2026-04-25T20:53:40.000Z</time></trkpt>
        <trkpt lat="28.512921" lon="105.132183"><ele>559.77216</ele><time>2026-04-25T20:53:46.000Z</time></trkpt>
        <trkpt lat="28.512945" lon="105.132136"><ele>560.97546</ele><time>2026-04-25T20:53:53.000Z</time></trkpt>
        <trkpt lat="28.512986" lon="105.132173"><ele>562.4003</ele><time>2026-04-25T20:54:05.000Z</time></trkpt>
        <trkpt lat="28.512985" lon="105.132229"><ele>562.8592</ele><time>2026-04-25T20:54:16.000Z</time></trkpt>
        <trkpt lat="28.512966" lon="105.132296"><ele>562.27454</ele><time>2026-04-25T20:54:25.000Z</time></trkpt>
        <trkpt lat="28.512946" lon="105.132342"><ele>564.4894</ele><time>2026-04-25T20:54:32.000Z</time></trkpt>
        <trkpt lat="28.512928" lon="105.132396"><ele>567.56366</ele><time>2026-04-25T20:54:37.000Z</time></trkpt>
        <trkpt lat="28.512905" lon="105.132448"><ele>569.36865</ele><time>2026-04-25T20:54:44.000Z</time></trkpt>
        <trkpt lat="28.512912" lon="105.13251"><ele>570.2961</ele><time>2026-04-25T20:54:52.000Z</time></trkpt>
        <trkpt lat="28.512907" lon="105.132569"><ele>570.4337</ele><time>2026-04-25T20:54:57.000Z</time></trkpt>
        <trkpt lat="28.512905" lon="105.132626"><ele>571.42236</ele><time>2026-04-25T20:55:02.000Z</time></trkpt>
        <trkpt lat="28.512901" lon="105.13268"><ele>572.9367</ele><time>2026-04-25T20:55:09.000Z</time></trkpt>
        <trkpt lat="28.512894" lon="105.132736"><ele>574.5828</ele><time>2026-04-25T20:55:15.000Z</time></trkpt>
        <trkpt lat="28.512874" lon="105.132794"><ele>576.7054</ele><time>2026-04-25T20:55:23.000Z</time></trkpt>
        <trkpt lat="28.512848" lon="105.132837"><ele>576.7425</ele><time>2026-04-25T20:55:29.000Z</time></trkpt>
        <trkpt lat="28.512838" lon="105.132896"><ele>576.8443</ele><time>2026-04-25T20:55:37.000Z</time></trkpt>
        <trkpt lat="28.512822" lon="105.132948"><ele>578.69714</ele><time>2026-04-25T20:55:44.000Z</time></trkpt>
        <trkpt lat="28.512798" lon="105.132993"><ele>581.0733</ele><time>2026-04-25T20:55:51.000Z</time></trkpt>
        <trkpt lat="28.512779" lon="105.13304"><ele>582.4422</ele><time>2026-04-25T20:55:58.000Z</time></trkpt>
        <trkpt lat="28.512774" lon="105.133092"><ele>582.77954</ele><time>2026-04-25T20:56:05.000Z</time></trkpt>
        <trkpt lat="28.512748" lon="105.133141"><ele>585.33374</ele><time>2026-04-25T20:56:12.000Z</time></trkpt>
        <trkpt lat="28.512764" lon="105.133197"><ele>587.30615</ele><time>2026-04-25T20:56:21.000Z</time></trkpt>
        <trkpt lat="28.512766" lon="105.133252"><ele>590.0333</ele><time>2026-04-25T20:56:31.000Z</time></trkpt>
        <trkpt lat="28.51278" lon="105.133301"><ele>590.1103</ele><time>2026-04-25T20:56:40.000Z</time></trkpt>
        <trkpt lat="28.512775" lon="105.133353"><ele>593.1972</ele><time>2026-04-25T20:56:48.000Z</time></trkpt>
        <trkpt lat="28.512787" lon="105.133405"><ele>595.5682</ele><time>2026-04-25T20:56:56.000Z</time></trkpt>
        <trkpt lat="28.512799" lon="105.133455"><ele>597.8995</ele><time>2026-04-25T20:57:06.000Z</time></trkpt>
        <trkpt lat="28.512803" lon="105.133507"><ele>600.23553</ele><time>2026-04-25T20:57:13.000Z</time></trkpt>
        <trkpt lat="28.512815" lon="105.133556"><ele>603.25867</ele><time>2026-04-25T20:57:26.000Z</time></trkpt>
        <trkpt lat="28.512829" lon="105.133605"><ele>605.89923</ele><time>2026-04-25T20:57:37.000Z</time></trkpt>
        <trkpt lat="28.512846" lon="105.133661"><ele>607.9254</ele><time>2026-04-25T20:57:46.000Z</time></trkpt>
        <trkpt lat="28.512863" lon="105.13371"><ele>608.0432</ele><time>2026-04-25T20:57:55.000Z</time></trkpt>
        <trkpt lat="28.512881" lon="105.133759"><ele>608.7713</ele><time>2026-04-25T20:58:02.000Z</time></trkpt>
        <trkpt lat="28.5129" lon="105.133807"><ele>611.612</ele><time>2026-04-25T20:58:09.000Z</time></trkpt>
        <trkpt lat="28.512941" lon="105.133839"><ele>613.9769</ele><time>2026-04-25T20:58:17.000Z</time></trkpt>
        <trkpt lat="28.51299" lon="105.133848"><ele>615.084</ele><time>2026-04-25T20:58:26.000Z</time></trkpt>
        <trkpt lat="28.513035" lon="105.133824"><ele>614.201</ele><time>2026-04-25T20:58:33.000Z</time></trkpt>
        <trkpt lat="28.513077" lon="105.1338"><ele>614.2507</ele><time>2026-04-25T20:58:39.000Z</time></trkpt>
        <trkpt lat="28.513116" lon="105.133772"><ele>613.48193</ele><time>2026-04-25T20:58:45.000Z</time></trkpt>
        <trkpt lat="28.513164" lon="105.133753"><ele>612.2707</ele><time>2026-04-25T20:58:51.000Z</time></trkpt>
        <trkpt lat="28.513211" lon="105.133723"><ele>611.00116</ele><time>2026-04-25T20:58:57.000Z</time></trkpt>
        <trkpt lat="28.513258" lon="105.133706"><ele>608.7744</ele><time>2026-04-25T20:59:03.000Z</time></trkpt>
        <trkpt lat="28.513299" lon="105.133673"><ele>610.71893</ele><time>2026-04-25T20:59:09.000Z</time></trkpt>
        <trkpt lat="28.513347" lon="105.133641"><ele>610.56287</ele><time>2026-04-25T20:59:15.000Z</time></trkpt>
        <trkpt lat="28.513386" lon="105.133614"><ele>608.81305</ele><time>2026-04-25T20:59:19.000Z</time></trkpt>
        <trkpt lat="28.513439" lon="105.133616"><ele>608.2284</ele><time>2026-04-25T20:59:24.000Z</time></trkpt>
        <trkpt lat="28.513487" lon="105.133633"><ele>606.97534</ele><time>2026-04-25T20:59:30.000Z</time></trkpt>
        <trkpt lat="28.513513" lon="105.133681"><ele>606.1089</ele><time>2026-04-25T20:59:35.000Z</time></trkpt>
        <trkpt lat="28.513522" lon="105.133732"><ele>604.7941</ele><time>2026-04-25T20:59:40.000Z</time></trkpt>
        <trkpt lat="28.513525" lon="105.133791"><ele>603.5046</ele><time>2026-04-25T20:59:46.000Z</time></trkpt>
        <trkpt lat="28.513497" lon="105.133835"><ele>603.1584</ele><time>2026-04-25T20:59:52.000Z</time></trkpt>
        <trkpt lat="28.513467" lon="105.133879"><ele>604.0135</ele><time>2026-04-25T20:59:58.000Z</time></trkpt>
        <trkpt lat="28.513445" lon="105.133939"><ele>602.5711</ele><time>2026-04-25T21:00:04.000Z</time></trkpt>
        <trkpt lat="28.513447" lon="105.133993"><ele>602.86865</ele><time>2026-04-25T21:00:08.000Z</time></trkpt>
        <trkpt lat="28.513463" lon="105.134043"><ele>604.264</ele><time>2026-04-25T21:00:12.000Z</time></trkpt>
        <trkpt lat="28.51347" lon="105.134097"><ele>604.5997</ele><time>2026-04-25T21:00:17.000Z</time></trkpt>
        <trkpt lat="28.513459" lon="105.134147"><ele>605.7571</ele><time>2026-04-25T21:00:23.000Z</time></trkpt>
        <trkpt lat="28.513441" lon="105.134195"><ele>607.8311</ele><time>2026-04-25T21:00:28.000Z</time></trkpt>
        <trkpt lat="28.513462" lon="105.134253"><ele>609.70856</ele><time>2026-04-25T21:00:33.000Z</time></trkpt>
        <trkpt lat="28.51349" lon="105.134295"><ele>610.4246</ele><time>2026-04-25T21:00:37.000Z</time></trkpt>
        <trkpt lat="28.513517" lon="105.134344"><ele>612.0974</ele><time>2026-04-25T21:00:41.000Z</time></trkpt>
        <trkpt lat="28.513561" lon="105.13437"><ele>613.4227</ele><time>2026-04-25T21:00:47.000Z</time></trkpt>
        <trkpt lat="28.513609" lon="105.134369"><ele>615.12085</ele><time>2026-04-25T21:00:52.000Z</time></trkpt>
        <trkpt lat="28.51366" lon="105.134357"><ele>616.9269</ele><time>2026-04-25T21:00:57.000Z</time></trkpt>
        <trkpt lat="28.513709" lon="105.134346"><ele>614.57684</ele><time>2026-04-25T21:01:02.000Z</time></trkpt>
        <trkpt lat="28.513761" lon="105.134332"><ele>613.4348</ele><time>2026-04-25T21:01:07.000Z</time></trkpt>
        <trkpt lat="28.513806" lon="105.134311"><ele>610.5693</ele><time>2026-04-25T21:01:12.000Z</time></trkpt>
        <trkpt lat="28.513851" lon="105.13429"><ele>609.96594</ele><time>2026-04-25T21:01:16.000Z</time></trkpt>
        <trkpt lat="28.513903" lon="105.13429"><ele>609.5745</ele><time>2026-04-25T21:01:20.000Z</time></trkpt>
        <trkpt lat="28.51395" lon="105.134311"><ele>608.9589</ele><time>2026-04-25T21:01:24.000Z</time></trkpt>
        <trkpt lat="28.513987" lon="105.134346"><ele>609.0343</ele><time>2026-04-25T21:01:28.000Z</time></trkpt>
        <trkpt lat="28.51398" lon="105.134408"><ele>607.7468</ele><time>2026-04-25T21:01:35.000Z</time></trkpt>
        <trkpt lat="28.513984" lon="105.13446"><ele>607.4405</ele><time>2026-04-25T21:01:40.000Z</time></trkpt>
        <trkpt lat="28.514011" lon="105.134511"><ele>607.7669</ele><time>2026-04-25T21:01:44.000Z</time></trkpt>
        <trkpt lat="28.514069" lon="105.13453"><ele>608.7334</ele><time>2026-04-25T21:01:50.000Z</time></trkpt>
        <trkpt lat="28.514115" lon="105.134542"><ele>609.38196</ele><time>2026-04-25T21:01:54.000Z</time></trkpt>
        <trkpt lat="28.514161" lon="105.134526"><ele>609.7266</ele><time>2026-04-25T21:01:58.000Z</time></trkpt>
        <trkpt lat="28.514197" lon="105.13449"><ele>610.515</ele><time>2026-04-25T21:02:02.000Z</time></trkpt>
        <trkpt lat="28.514225" lon="105.134438"><ele>611.61444</ele><time>2026-04-25T21:02:08.000Z</time></trkpt>
        <trkpt lat="28.514265" lon="105.134409"><ele>610.94806</ele><time>2026-04-25T21:02:14.000Z</time></trkpt>
        <trkpt lat="28.51431" lon="105.134397"><ele>611.85144</ele><time>2026-04-25T21:02:21.000Z</time></trkpt>
        <trkpt lat="28.514355" lon="105.134415"><ele>613.85986</ele><time>2026-04-25T21:02:29.000Z</time></trkpt>
        <trkpt lat="28.514401" lon="105.13442"><ele>615.7325</ele><time>2026-04-25T21:02:35.000Z</time></trkpt>
        <trkpt lat="28.514446" lon="105.134416"><ele>616.443</ele><time>2026-04-25T21:02:40.000Z</time></trkpt>
        <trkpt lat="28.514492" lon="105.134449"><ele>615.83246</ele><time>2026-04-25T21:02:47.000Z</time></trkpt>
        <trkpt lat="28.514519" lon="105.134493"><ele>616.3846</ele><time>2026-04-25T21:02:54.000Z</time></trkpt>
        <trkpt lat="28.514534" lon="105.134543"><ele>616.0372</ele><time>2026-04-25T21:03:00.000Z</time></trkpt>
        <trkpt lat="28.514552" lon="105.134594"><ele>615.8639</ele><time>2026-04-25T21:03:06.000Z</time></trkpt>
        <trkpt lat="28.514568" lon="105.134644"><ele>616.281</ele><time>2026-04-25T21:03:11.000Z</time></trkpt>
        <trkpt lat="28.514581" lon="105.134697"><ele>617.3611</ele><time>2026-04-25T21:03:16.000Z</time></trkpt>
        <trkpt lat="28.514575" lon="105.134753"><ele>617.9654</ele><time>2026-04-25T21:03:23.000Z</time></trkpt>
        <trkpt lat="28.514569" lon="105.134805"><ele>617.4468</ele><time>2026-04-25T21:03:28.000Z</time></trkpt>
        <trkpt lat="28.514566" lon="105.134857"><ele>616.91974</ele><time>2026-04-25T21:03:33.000Z</time></trkpt>
        <trkpt lat="28.514569" lon="105.134919"><ele>616.1799</ele><time>2026-04-25T21:03:38.000Z</time></trkpt>
        <trkpt lat="28.514596" lon="105.134964"><ele>616.3059</ele><time>2026-04-25T21:03:41.000Z</time></trkpt>
        <trkpt lat="28.514625" lon="105.135006"><ele>617.21094</ele><time>2026-04-25T21:03:45.000Z</time></trkpt>
        <trkpt lat="28.514673" lon="105.135024"><ele>618.4226</ele><time>2026-04-25T21:03:51.000Z</time></trkpt>
        <trkpt lat="28.514722" lon="105.135041"><ele>619.27155</ele><time>2026-04-25T21:03:54.000Z</time></trkpt>
        <trkpt lat="28.514759" lon="105.13508"><ele>620.6325</ele><time>2026-04-25T21:03:59.000Z</time></trkpt>
        <trkpt lat="28.514813" lon="105.135087"><ele>621.61597</ele><time>2026-04-25T21:04:05.000Z</time></trkpt>
        <trkpt lat="28.514863" lon="105.13508"><ele>622.2338</ele><time>2026-04-25T21:04:11.000Z</time></trkpt>
        <trkpt lat="28.514915" lon="105.135094"><ele>622.6714</ele><time>2026-04-25T21:04:17.000Z</time></trkpt>
        <trkpt lat="28.51496" lon="105.135088"><ele>623.0392</ele><time>2026-04-25T21:04:21.000Z</time></trkpt>
        <trkpt lat="28.515009" lon="105.135102"><ele>622.36743</ele><time>2026-04-25T21:04:26.000Z</time></trkpt>
        <trkpt lat="28.515056" lon="105.135108"><ele>622.47736</ele><time>2026-04-25T21:04:30.000Z</time></trkpt>
        <trkpt lat="28.515114" lon="105.135102"><ele>623.26776</ele><time>2026-04-25T21:04:35.000Z</time></trkpt>
        <trkpt lat="28.515158" lon="105.135116"><ele>623.3199</ele><time>2026-04-25T21:04:40.000Z</time></trkpt>
        <trkpt lat="28.51521" lon="105.135128"><ele>623.17694</ele><time>2026-04-25T21:04:45.000Z</time></trkpt>
        <trkpt lat="28.515246" lon="105.135095"><ele>624.87476</ele><time>2026-04-25T21:04:49.000Z</time></trkpt>
        <trkpt lat="28.515291" lon="105.135076"><ele>625.04926</ele><time>2026-04-25T21:04:55.000Z</time></trkpt>
        <trkpt lat="28.515341" lon="105.135064"><ele>626.1469</ele><time>2026-04-25T21:05:01.000Z</time></trkpt>
        <trkpt lat="28.515388" lon="105.135074"><ele>627.85876</ele><time>2026-04-25T21:05:10.000Z</time></trkpt>
        <trkpt lat="28.515434" lon="105.135104"><ele>628.7593</ele><time>2026-04-25T21:05:18.000Z</time></trkpt>
        <trkpt lat="28.515482" lon="105.135117"><ele>629.34924</ele><time>2026-04-25T21:05:23.000Z</time></trkpt>
        <trkpt lat="28.515538" lon="105.135123"><ele>629.0913</ele><time>2026-04-25T21:05:28.000Z</time></trkpt>
        <trkpt lat="28.515594" lon="105.13513"><ele>629.24744</ele><time>2026-04-25T21:05:33.000Z</time></trkpt>
        <trkpt lat="28.515617" lon="105.135182"><ele>627.40546</ele><time>2026-04-25T21:05:42.000Z</time></trkpt>
        <trkpt lat="28.515604" lon="105.135235"><ele>625.721</ele><time>2026-04-25T21:05:47.000Z</time></trkpt>
        <trkpt lat="28.5156" lon="105.135296"><ele>625.0343</ele><time>2026-04-25T21:05:54.000Z</time></trkpt>
        <trkpt lat="28.515591" lon="105.135357"><ele>622.804</ele><time>2026-04-25T21:05:59.000Z</time></trkpt>
        <trkpt lat="28.515599" lon="105.135408"><ele>622.0495</ele><time>2026-04-25T21:06:04.000Z</time></trkpt>
        <trkpt lat="28.515588" lon="105.135458"><ele>621.3232</ele><time>2026-04-25T21:06:08.000Z</time></trkpt>
        <trkpt lat="28.515585" lon="105.13551"><ele>621.6181</ele><time>2026-04-25T21:06:14.000Z</time></trkpt>
        <trkpt lat="28.515613" lon="105.135559"><ele>622.3255</ele><time>2026-04-25T21:06:18.000Z</time></trkpt>
        <trkpt lat="28.515636" lon="105.135609"><ele>623.23615</ele><time>2026-04-25T21:06:23.000Z</time></trkpt>
        <trkpt lat="28.515664" lon="105.135659"><ele>622.5065</ele><time>2026-04-25T21:06:28.000Z</time></trkpt>
        <trkpt lat="28.515698" lon="105.135703"><ele>622.42957</ele><time>2026-04-25T21:06:32.000Z</time></trkpt>
        <trkpt lat="28.515708" lon="105.135757"><ele>622.5385</ele><time>2026-04-25T21:06:39.000Z</time></trkpt>
        <trkpt lat="28.515674" lon="105.135723"><ele>625.27563</ele><time>2026-04-25T21:06:50.000Z</time></trkpt>
        <trkpt lat="28.515629" lon="105.135701"><ele>628.1456</ele><time>2026-04-25T21:07:09.000Z</time></trkpt>
        <trkpt lat="28.515587" lon="105.135728"><ele>626.66</ele><time>2026-04-25T21:07:54.000Z</time></trkpt>
        <trkpt lat="28.515541" lon="105.135739"><ele>626.5324</ele><time>2026-04-25T21:07:57.000Z</time></trkpt>
        <trkpt lat="28.515565" lon="105.135782"><ele>624.83746</ele><time>2026-04-25T21:08:04.000Z</time></trkpt>
        <trkpt lat="28.515518" lon="105.135795"><ele>623.8651</ele><time>2026-04-25T21:08:13.000Z</time></trkpt>
        <trkpt lat="28.515482" lon="105.13583"><ele>628.45514</ele><time>2026-04-25T21:08:18.000Z</time></trkpt>
        <trkpt lat="28.515538" lon="105.135812"><ele>631.8106</ele><time>2026-04-25T21:09:23.000Z</time></trkpt>
        <trkpt lat="28.515482" lon="105.135826"><ele>630.1139</ele><time>2026-04-25T21:09:34.000Z</time></trkpt>
        <trkpt lat="28.515481" lon="105.13588"><ele>632.58075</ele><time>2026-04-25T21:09:55.000Z</time></trkpt>
        <trkpt lat="28.515529" lon="105.1359"><ele>633.0328</ele><time>2026-04-25T21:10:00.000Z</time></trkpt>
        <trkpt lat="28.515571" lon="105.135923"><ele>633.63666</ele><time>2026-04-25T21:10:11.000Z</time></trkpt>
        <trkpt lat="28.515601" lon="105.135881"><ele>635.5456</ele><time>2026-04-25T21:10:51.000Z</time></trkpt>
        <trkpt lat="28.515609" lon="105.135935"><ele>635.63776</ele><time>2026-04-25T21:10:55.000Z</time></trkpt>
        <trkpt lat="28.515634" lon="105.135887"><ele>635.93176</ele><time>2026-04-25T21:10:57.000Z</time></trkpt>
        <trkpt lat="28.515679" lon="105.13588"><ele>636.8306</ele><time>2026-04-25T21:11:06.000Z</time></trkpt>
        <trkpt lat="28.515668" lon="105.135939"><ele>644.1359</ele><time>2026-04-25T21:11:20.000Z</time></trkpt>
        <trkpt lat="28.515629" lon="105.13581"><ele>640.0033</ele><time>2026-04-25T21:12:19.000Z</time></trkpt>
        <trkpt lat="28.515571" lon="105.135799"><ele>639.09106</ele><time>2026-04-25T21:12:20.000Z</time></trkpt>
        <trkpt lat="28.515602" lon="105.135855"><ele>643.715</ele><time>2026-04-25T21:12:21.000Z</time></trkpt>
        <trkpt lat="28.51564" lon="105.135908"><ele>643.5477</ele><time>2026-04-25T21:12:23.000Z</time></trkpt>
        <trkpt lat="28.515659" lon="105.135956"><ele>641.8961</ele><time>2026-04-25T21:12:36.000Z</time></trkpt>
        <trkpt lat="28.515701" lon="105.135994"><ele>638.1764</ele><time>2026-04-25T21:12:53.000Z</time></trkpt>
        <trkpt lat="28.515727" lon="105.136036"><ele>637.3775</ele><time>2026-04-25T21:13:08.000Z</time></trkpt>
        <trkpt lat="28.515755" lon="105.136084"><ele>638.1475</ele><time>2026-04-25T21:13:14.000Z</time></trkpt>
        <trkpt lat="28.515783" lon="105.13613"><ele>637.6298</ele><time>2026-04-25T21:13:26.000Z</time></trkpt>
        <trkpt lat="28.515795" lon="105.13618"><ele>637.905</ele><time>2026-04-25T21:13:31.000Z</time></trkpt>
        <trkpt lat="28.515823" lon="105.136228"><ele>636.335</ele><time>2026-04-25T21:13:36.000Z</time></trkpt>
        <trkpt lat="28.515826" lon="105.136281"><ele>636.30914</ele><time>2026-04-25T21:13:49.000Z</time></trkpt>
        <trkpt lat="28.515866" lon="105.136305"><ele>633.62714</ele><time>2026-04-25T21:14:02.000Z</time></trkpt>
        <trkpt lat="28.515913" lon="105.136273"><ele>630.037</ele><time>2026-04-25T21:14:24.000Z</time></trkpt>
        <trkpt lat="28.515869" lon="105.136261"><ele>631.2705</ele><time>2026-04-25T21:14:42.000Z</time></trkpt>
        <trkpt lat="28.515873" lon="105.136316"><ele>633.13477</ele><time>2026-04-25T21:15:06.000Z</time></trkpt>
        <trkpt lat="28.515919" lon="105.136318"><ele>624.9897</ele><time>2026-04-25T21:15:53.000Z</time></trkpt>
        <trkpt lat="28.515873" lon="105.136308"><ele>629.1659</ele><time>2026-04-25T21:16:12.000Z</time></trkpt>
        <trkpt lat="28.515878" lon="105.136359"><ele>635.6243</ele><time>2026-04-25T21:16:33.000Z</time></trkpt>
        <trkpt lat="28.515918" lon="105.13641"><ele>631.3407</ele><time>2026-04-25T21:17:10.000Z</time></trkpt>
        <trkpt lat="28.51595" lon="105.136447"><ele>632.0719</ele><time>2026-04-25T21:17:14.000Z</time></trkpt>
        <trkpt lat="28.515992" lon="105.136484"><ele>633.51825</ele><time>2026-04-25T21:17:26.000Z</time></trkpt>
        <trkpt lat="28.516022" lon="105.136525"><ele>636.26025</ele><time>2026-04-25T21:17:39.000Z</time></trkpt>
        <trkpt lat="28.516052" lon="105.136562"><ele>639.4436</ele><time>2026-04-25T21:17:50.000Z</time></trkpt>
        <trkpt lat="28.516082" lon="105.136605"><ele>643.34985</ele><time>2026-04-25T21:18:08.000Z</time></trkpt>
        <trkpt lat="28.516126" lon="105.136631"><ele>644.6319</ele><time>2026-04-25T21:18:19.000Z</time></trkpt>
        <trkpt lat="28.516158" lon="105.136694"><ele>639.4264</ele><time>2026-04-25T21:18:37.000Z</time></trkpt>
        <trkpt lat="28.516153" lon="105.136635"><ele>639.3365</ele><time>2026-04-25T21:18:40.000Z</time></trkpt>
        <trkpt lat="28.516177" lon="105.136687"><ele>649.4944</ele><time>2026-04-25T21:19:29.000Z</time></trkpt>
        <trkpt lat="28.516218" lon="105.136711"><ele>651.385</ele><time>2026-04-25T21:19:55.000Z</time></trkpt>
        <trkpt lat="28.516262" lon="105.13673"><ele>655.3243</ele><time>2026-04-25T21:20:21.000Z</time></trkpt>
        <trkpt lat="28.516312" lon="105.136736"><ele>662.7833</ele><time>2026-04-25T21:20:40.000Z</time></trkpt>
        <trkpt lat="28.516357" lon="105.13674"><ele>664.8576</ele><time>2026-04-25T21:20:45.000Z</time></trkpt>
        <trkpt lat="28.516395" lon="105.136768"><ele>666.6917</ele><time>2026-04-25T21:20:52.000Z</time></trkpt>
        <trkpt lat="28.516442" lon="105.136786"><ele>668.1743</ele><time>2026-04-25T21:20:58.000Z</time></trkpt>
        <trkpt lat="28.516487" lon="105.136799"><ele>668.163</ele><time>2026-04-25T21:21:12.000Z</time></trkpt>
        <trkpt lat="28.516539" lon="105.136802"><ele>666.4061</ele><time>2026-04-25T21:21:18.000Z</time></trkpt>
        <trkpt lat="28.516588" lon="105.136801"><ele>666.67224</ele><time>2026-04-25T21:21:22.000Z</time></trkpt>
        <trkpt lat="28.516636" lon="105.136799"><ele>665.665</ele><time>2026-04-25T21:21:27.000Z</time></trkpt>
        <trkpt lat="28.516683" lon="105.136789"><ele>665.70886</ele><time>2026-04-25T21:21:32.000Z</time></trkpt>
        <trkpt lat="28.51672" lon="105.136757"><ele>664.561</ele><time>2026-04-25T21:21:36.000Z</time></trkpt>
        <trkpt lat="28.516768" lon="105.136759"><ele>663.46924</ele><time>2026-04-25T21:21:43.000Z</time></trkpt>
        <trkpt lat="28.51681" lon="105.136727"><ele>660.7724</ele><time>2026-04-25T21:22:29.000Z</time></trkpt>
        <trkpt lat="28.516764" lon="105.136729"><ele>660.3438</ele><time>2026-04-25T21:23:20.000Z</time></trkpt>
        <trkpt lat="28.516814" lon="105.136722"><ele>656.98126</ele><time>2026-04-25T21:24:34.000Z</time></trkpt>
        <trkpt lat="28.516768" lon="105.136728"><ele>660.0838</ele><time>2026-04-25T21:25:44.000Z</time></trkpt>
        <trkpt lat="28.516813" lon="105.136744"><ele>659.34454</ele><time>2026-04-25T21:26:42.000Z</time></trkpt>
        <trkpt lat="28.516857" lon="105.136758"><ele>662.62756</ele><time>2026-04-25T21:26:52.000Z</time></trkpt>
        <trkpt lat="28.516903" lon="105.136757"><ele>665.06433</ele><time>2026-04-25T21:27:01.000Z</time></trkpt>
        <trkpt lat="28.516948" lon="105.136761"><ele>668.4892</ele><time>2026-04-25T21:27:13.000Z</time></trkpt>
        <trkpt lat="28.516997" lon="105.13675"><ele>672.2164</ele><time>2026-04-25T21:27:32.000Z</time></trkpt>
        <trkpt lat="28.517039" lon="105.13673"><ele>673.106</ele><time>2026-04-25T21:27:41.000Z</time></trkpt>
        <trkpt lat="28.517083" lon="105.136706"><ele>681.16156</ele><time>2026-04-25T21:27:55.000Z</time></trkpt>
        <trkpt lat="28.517129" lon="105.136695"><ele>683.30664</ele><time>2026-04-25T21:28:02.000Z</time></trkpt>
        <trkpt lat="28.517176" lon="105.136698"><ele>684.82184</ele><time>2026-04-25T21:28:08.000Z</time></trkpt>
        <trkpt lat="28.517218" lon="105.136721"><ele>686.9772</ele><time>2026-04-25T21:28:15.000Z</time></trkpt>
        <trkpt lat="28.51726" lon="105.13674"><ele>690.1336</ele><time>2026-04-25T21:28:24.000Z</time></trkpt>
        <trkpt lat="28.517288" lon="105.136787"><ele>695.222</ele><time>2026-04-25T21:28:32.000Z</time></trkpt>
        <trkpt lat="28.517322" lon="105.136827"><ele>696.61975</ele><time>2026-04-25T21:28:39.000Z</time></trkpt>
        <trkpt lat="28.517336" lon="105.136884"><ele>695.5226</ele><time>2026-04-25T21:28:46.000Z</time></trkpt>
        <trkpt lat="28.517364" lon="105.136934"><ele>695.70905</ele><time>2026-04-25T21:28:51.000Z</time></trkpt>
        <trkpt lat="28.517408" lon="105.136965"><ele>695.7436</ele><time>2026-04-25T21:28:57.000Z</time></trkpt>
        <trkpt lat="28.517451" lon="105.136984"><ele>695.78516</ele><time>2026-04-25T21:29:01.000Z</time></trkpt>
        <trkpt lat="28.517502" lon="105.136974"><ele>695.6706</ele><time>2026-04-25T21:29:06.000Z</time></trkpt>
        <trkpt lat="28.517537" lon="105.13694"><ele>694.6283</ele><time>2026-04-25T21:29:12.000Z</time></trkpt>
        <trkpt lat="28.517572" lon="105.136898"><ele>694.4169</ele><time>2026-04-25T21:29:17.000Z</time></trkpt>
        <trkpt lat="28.517596" lon="105.136849"><ele>693.5057</ele><time>2026-04-25T21:29:22.000Z</time></trkpt>
        <trkpt lat="28.517625" lon="105.136802"><ele>691.2387</ele><time>2026-04-25T21:29:27.000Z</time></trkpt>
        <trkpt lat="28.517656" lon="105.136763"><ele>689.2217</ele><time>2026-04-25T21:29:33.000Z</time></trkpt>
        <trkpt lat="28.517705" lon="105.136749"><ele>688.1338</ele><time>2026-04-25T21:29:43.000Z</time></trkpt>
        <trkpt lat="28.517753" lon="105.136742"><ele>684.0289</ele><time>2026-04-25T21:29:49.000Z</time></trkpt>
        <trkpt lat="28.517804" lon="105.136747"><ele>680.6196</ele><time>2026-04-25T21:29:57.000Z</time></trkpt>
        <trkpt lat="28.517849" lon="105.136749"><ele>679.0831</ele><time>2026-04-25T21:30:01.000Z</time></trkpt>
        <trkpt lat="28.517889" lon="105.136703"><ele>678.899</ele><time>2026-04-25T21:30:06.000Z</time></trkpt>
        <trkpt lat="28.517877" lon="105.136652"><ele>675.29865</ele><time>2026-04-25T21:30:18.000Z</time></trkpt>
        <trkpt lat="28.517914" lon="105.136618"><ele>675.3091</ele><time>2026-04-25T21:30:23.000Z</time></trkpt>
        <trkpt lat="28.51794" lon="105.136667"><ele>674.4464</ele><time>2026-04-25T21:30:42.000Z</time></trkpt>
        <trkpt lat="28.517934" lon="105.13672"><ele>674.1557</ele><time>2026-04-25T21:30:46.000Z</time></trkpt>
        <trkpt lat="28.517921" lon="105.136667"><ele>675.02826</ele><time>2026-04-25T21:31:04.000Z</time></trkpt>
        <trkpt lat="28.517951" lon="105.136628"><ele>674.8633</ele><time>2026-04-25T21:31:07.000Z</time></trkpt>
        <trkpt lat="28.517959" lon="105.136682"><ele>667.01965</ele><time>2026-04-25T21:31:10.000Z</time></trkpt>
        <trkpt lat="28.517996" lon="105.136748"><ele>663.03455</ele><time>2026-04-25T21:31:11.000Z</time></trkpt>
        <trkpt lat="28.518028" lon="105.136805"><ele>660.556</ele><time>2026-04-25T21:31:12.000Z</time></trkpt>
        <trkpt lat="28.517969" lon="105.136777"><ele>669.6001</ele><time>2026-04-25T21:31:13.000Z</time></trkpt>
        <trkpt lat="28.517927" lon="105.136661"><ele>670.5119</ele><time>2026-04-25T21:31:14.000Z</time></trkpt>
        <trkpt lat="28.517928" lon="105.136609"><ele>672.70135</ele><time>2026-04-25T21:31:18.000Z</time></trkpt>
        <trkpt lat="28.517918" lon="105.136666"><ele>672.12085</ele><time>2026-04-25T21:31:37.000Z</time></trkpt>
        <trkpt lat="28.517936" lon="105.136741"><ele>671.87573</ele><time>2026-04-25T21:31:42.000Z</time></trkpt>
        <trkpt lat="28.517955" lon="105.136792"><ele>671.68066</ele><time>2026-04-25T21:31:49.000Z</time></trkpt>
        <trkpt lat="28.517984" lon="105.136837"><ele>674.29724</ele><time>2026-04-25T21:31:55.000Z</time></trkpt>
        <trkpt lat="28.518027" lon="105.136858"><ele>675.9995</ele><time>2026-04-25T21:32:06.000Z</time></trkpt>
        <trkpt lat="28.518066" lon="105.136887"><ele>677.6016</ele><time>2026-04-25T21:32:13.000Z</time></trkpt>
        <trkpt lat="28.518036" lon="105.136849"><ele>679.59503</ele><time>2026-04-25T21:32:24.000Z</time></trkpt>
        <trkpt lat="28.517994" lon="105.136814"><ele>678.60876</ele><time>2026-04-25T21:32:30.000Z</time></trkpt>
        <trkpt lat="28.51796" lon="105.136771"><ele>677.8874</ele><time>2026-04-25T21:32:37.000Z</time></trkpt>
        <trkpt lat="28.517921" lon="105.136737"><ele>675.8477</ele><time>2026-04-25T21:32:44.000Z</time></trkpt>
        <trkpt lat="28.517875" lon="105.136732"><ele>672.77454</ele><time>2026-04-25T21:33:03.000Z</time></trkpt>
        <trkpt lat="28.517915" lon="105.136697"><ele>676.806</ele><time>2026-04-25T21:33:39.000Z</time></trkpt>
        <trkpt lat="28.517918" lon="105.136639"><ele>675.90466</ele><time>2026-04-25T21:33:47.000Z</time></trkpt>
        <trkpt lat="28.517962" lon="105.136625"><ele>675.90234</ele><time>2026-04-25T21:33:52.000Z</time></trkpt>
        <trkpt lat="28.518011" lon="105.136624"><ele>673.7992</ele><time>2026-04-25T21:34:02.000Z</time></trkpt>
        <trkpt lat="28.518055" lon="105.136638"><ele>673.20056</ele><time>2026-04-25T21:34:12.000Z</time></trkpt>
        <trkpt lat="28.518102" lon="105.13662"><ele>674.3016</ele><time>2026-04-25T21:34:18.000Z</time></trkpt>
        <trkpt lat="28.518142" lon="105.136594"><ele>674.59515</ele><time>2026-04-25T21:34:23.000Z</time></trkpt>
        <trkpt lat="28.518191" lon="105.136581"><ele>674.4797</ele><time>2026-04-25T21:34:30.000Z</time></trkpt>
        <trkpt lat="28.518246" lon="105.136572"><ele>674.8236</ele><time>2026-04-25T21:35:13.000Z</time></trkpt>
        <trkpt lat="28.518192" lon="105.13656"><ele>673.73413</ele><time>2026-04-25T21:35:44.000Z</time></trkpt>
        <trkpt lat="28.518153" lon="105.136591"><ele>677.0905</ele><time>2026-04-25T21:35:52.000Z</time></trkpt>
        <trkpt lat="28.5181" lon="105.136572"><ele>675.4569</ele><time>2026-04-25T21:36:04.000Z</time></trkpt>
        <trkpt lat="28.518177" lon="105.136626"><ele>675.45526</ele><time>2026-04-25T21:36:05.000Z</time></trkpt>
        <trkpt lat="28.518121" lon="105.136644"><ele>674.1765</ele><time>2026-04-25T21:36:09.000Z</time></trkpt>
        <trkpt lat="28.518067" lon="105.136653"><ele>672.65015</ele><time>2026-04-25T21:36:14.000Z</time></trkpt>
        <trkpt lat="28.518017" lon="105.136646"><ele>671.63745</ele><time>2026-04-25T21:36:20.000Z</time></trkpt>
        <trkpt lat="28.517968" lon="105.136645"><ele>670.7386</ele><time>2026-04-25T21:36:27.000Z</time></trkpt>
        <trkpt lat="28.517919" lon="105.136663"><ele>670.8754</ele><time>2026-04-25T21:36:32.000Z</time></trkpt>
        <trkpt lat="28.517896" lon="105.136707"><ele>670.01324</ele><time>2026-04-25T21:36:36.000Z</time></trkpt>
        <trkpt lat="28.517852" lon="105.13673"><ele>668.1907</ele><time>2026-04-25T21:36:43.000Z</time></trkpt>
        <trkpt lat="28.517806" lon="105.136705"><ele>670.36</ele><time>2026-04-25T21:37:00.000Z</time></trkpt>
        <trkpt lat="28.517762" lon="105.136721"><ele>671.4228</ele><time>2026-04-25T21:37:08.000Z</time></trkpt>
        <trkpt lat="28.517712" lon="105.13672"><ele>674.1998</ele><time>2026-04-25T21:37:16.000Z</time></trkpt>
        <trkpt lat="28.517661" lon="105.136739"><ele>676.7506</ele><time>2026-04-25T21:37:23.000Z</time></trkpt>
        <trkpt lat="28.517628" lon="105.136783"><ele>676.0379</ele><time>2026-04-25T21:37:29.000Z</time></trkpt>
        <trkpt lat="28.517584" lon="105.136819"><ele>675.5371</ele><time>2026-04-25T21:37:35.000Z</time></trkpt>
        <trkpt lat="28.517548" lon="105.136861"><ele>673.9486</ele><time>2026-04-25T21:37:41.000Z</time></trkpt>
        <trkpt lat="28.517518" lon="105.1369"><ele>673.9652</ele><time>2026-04-25T21:37:47.000Z</time></trkpt>
        <trkpt lat="28.517476" lon="105.136939"><ele>671.4461</ele><time>2026-04-25T21:37:53.000Z</time></trkpt>
        <trkpt lat="28.517429" lon="105.136943"><ele>673.17633</ele><time>2026-04-25T21:38:01.000Z</time></trkpt>
        <trkpt lat="28.517396" lon="105.136905"><ele>673.65735</ele><time>2026-04-25T21:38:08.000Z</time></trkpt>
        <trkpt lat="28.517368" lon="105.136857"><ele>675.2338</ele><time>2026-04-25T21:38:17.000Z</time></trkpt>
        <trkpt lat="28.517362" lon="105.136801"><ele>677.198</ele><time>2026-04-25T21:38:23.000Z</time></trkpt>
        <trkpt lat="28.517333" lon="105.13676"><ele>677.48395</ele><time>2026-04-25T21:38:29.000Z</time></trkpt>
        <trkpt lat="28.517295" lon="105.13673"><ele>672.47296</ele><time>2026-04-25T21:38:38.000Z</time></trkpt>
        <trkpt lat="28.517249" lon="105.136697"><ele>670.01086</ele><time>2026-04-25T21:38:43.000Z</time></trkpt>
        <trkpt lat="28.517199" lon="105.136676"><ele>668.77277</ele><time>2026-04-25T21:38:47.000Z</time></trkpt>
        <trkpt lat="28.517152" lon="105.136677"><ele>670.02704</ele><time>2026-04-25T21:38:51.000Z</time></trkpt>
        <trkpt lat="28.517102" lon="105.136666"><ele>670.9966</ele><time>2026-04-25T21:38:56.000Z</time></trkpt>
        <trkpt lat="28.517067" lon="105.1367"><ele>670.9107</ele><time>2026-04-25T21:39:03.000Z</time></trkpt>
        <trkpt lat="28.517022" lon="105.136706"><ele>676.0147</ele><time>2026-04-25T21:39:23.000Z</time></trkpt>
        <trkpt lat="28.516976" lon="105.136719"><ele>678.32715</ele><time>2026-04-25T21:39:34.000Z</time></trkpt>
        <trkpt lat="28.516924" lon="105.136715"><ele>677.2606</ele><time>2026-04-25T21:39:43.000Z</time></trkpt>
        <trkpt lat="28.516874" lon="105.136716"><ele>673.9814</ele><time>2026-04-25T21:39:51.000Z</time></trkpt>
        <trkpt lat="28.516827" lon="105.136731"><ele>667.37335</ele><time>2026-04-25T21:40:01.000Z</time></trkpt>
        <trkpt lat="28.516777" lon="105.136728"><ele>661.9442</ele><time>2026-04-25T21:40:09.000Z</time></trkpt>
        <trkpt lat="28.516731" lon="105.136733"><ele>660.7545</ele><time>2026-04-25T21:40:14.000Z</time></trkpt>
        <trkpt lat="28.516682" lon="105.136741"><ele>661.1433</ele><time>2026-04-25T21:40:20.000Z</time></trkpt>
        <trkpt lat="28.516628" lon="105.136744"><ele>659.66406</ele><time>2026-04-25T21:40:25.000Z</time></trkpt>
        <trkpt lat="28.516576" lon="105.136759"><ele>656.57294</ele><time>2026-04-25T21:40:30.000Z</time></trkpt>
        <trkpt lat="28.516526" lon="105.136764"><ele>656.7188</ele><time>2026-04-25T21:40:35.000Z</time></trkpt>
        <trkpt lat="28.516473" lon="105.136754"><ele>657.93585</ele><time>2026-04-25T21:40:43.000Z</time></trkpt>
        <trkpt lat="28.516424" lon="105.13673"><ele>659.74316</ele><time>2026-04-25T21:40:50.000Z</time></trkpt>
        <trkpt lat="28.516377" lon="105.136716"><ele>658.6739</ele><time>2026-04-25T21:40:58.000Z</time></trkpt>
        <trkpt lat="28.516327" lon="105.136708"><ele>663.90045</ele><time>2026-04-25T21:44:39.000Z</time></trkpt>
        <trkpt lat="28.516377" lon="105.136724"><ele>663.76697</ele><time>2026-04-25T21:44:59.000Z</time></trkpt>
        <trkpt lat="28.516329" lon="105.136712"><ele>664.5476</ele><time>2026-04-25T21:46:24.000Z</time></trkpt>
        <trkpt lat="28.516283" lon="105.136697"><ele>665.34784</ele><time>2026-04-25T21:46:30.000Z</time></trkpt>
        <trkpt lat="28.516334" lon="105.136711"><ele>665.3371</ele><time>2026-04-25T21:46:37.000Z</time></trkpt>
        <trkpt lat="28.516377" lon="105.136737"><ele>666.5121</ele><time>2026-04-25T21:46:42.000Z</time></trkpt>
        <trkpt lat="28.516335" lon="105.136709"><ele>664.6768</ele><time>2026-04-25T21:48:00.000Z</time></trkpt>
        <trkpt lat="28.51629" lon="105.136698"><ele>667.8835</ele><time>2026-04-25T21:48:21.000Z</time></trkpt>
        <trkpt lat="28.516244" lon="105.136704"><ele>662.53375</ele><time>2026-04-25T21:48:49.000Z</time></trkpt>
        <trkpt lat="28.5162" lon="105.136686"><ele>651.71436</ele><time>2026-04-25T21:49:21.000Z</time></trkpt>
        <trkpt lat="28.51617" lon="105.136645"><ele>649.8583</ele><time>2026-04-25T21:49:32.000Z</time></trkpt>
        <trkpt lat="28.516125" lon="105.13662"><ele>639.7758</ele><time>2026-04-25T21:51:22.000Z</time></trkpt>
        <trkpt lat="28.516086" lon="105.136585"><ele>640.1273</ele><time>2026-04-25T21:51:28.000Z</time></trkpt>
        <trkpt lat="28.516044" lon="105.136544"><ele>640.22186</ele><time>2026-04-25T21:51:36.000Z</time></trkpt>
        <trkpt lat="28.516001" lon="105.136526"><ele>634.5061</ele><time>2026-04-25T21:51:54.000Z</time></trkpt>
        <trkpt lat="28.515973" lon="105.136474"><ele>633.6236</ele><time>2026-04-25T21:52:00.000Z</time></trkpt>
        <trkpt lat="28.515937" lon="105.136438"><ele>634.2272</ele><time>2026-04-25T21:52:06.000Z</time></trkpt>
        <trkpt lat="28.515905" lon="105.136395"><ele>634.577</ele><time>2026-04-25T21:52:11.000Z</time></trkpt>
        <trkpt lat="28.515887" lon="105.136346"><ele>636.92084</ele><time>2026-04-25T21:52:17.000Z</time></trkpt>
        <trkpt lat="28.515853" lon="105.136308"><ele>635.5048</ele><time>2026-04-25T21:52:22.000Z</time></trkpt>
        <trkpt lat="28.515808" lon="105.136272"><ele>634.19104</ele><time>2026-04-25T21:52:30.000Z</time></trkpt>
        <trkpt lat="28.515811" lon="105.136335"><ele>631.94415</ele><time>2026-04-25T21:53:06.000Z</time></trkpt>
        <trkpt lat="28.515785" lon="105.136279"><ele>631.1857</ele><time>2026-04-25T21:53:09.000Z</time></trkpt>
        <trkpt lat="28.515747" lon="105.136246"><ele>629.1689</ele><time>2026-04-25T21:53:12.000Z</time></trkpt>
        <trkpt lat="28.515727" lon="105.136192"><ele>625.81006</ele><time>2026-04-25T21:53:26.000Z</time></trkpt>
        <trkpt lat="28.515708" lon="105.136141"><ele>625.7525</ele><time>2026-04-25T21:53:30.000Z</time></trkpt>
        <trkpt lat="28.51567" lon="105.136107"><ele>625.01184</ele><time>2026-04-25T21:53:34.000Z</time></trkpt>
        <trkpt lat="28.515633" lon="105.136067"><ele>626.6596</ele><time>2026-04-25T21:53:39.000Z</time></trkpt>
        <trkpt lat="28.515602" lon="105.13602"><ele>627.7134</ele><time>2026-04-25T21:53:46.000Z</time></trkpt>
        <trkpt lat="28.515578" lon="105.135972"><ele>628.089</ele><time>2026-04-25T21:53:53.000Z</time></trkpt>
        <trkpt lat="28.515583" lon="105.135916"><ele>628.32745</ele><time>2026-04-25T21:53:56.000Z</time></trkpt>
        <trkpt lat="28.515559" lon="105.135867"><ele>628.9829</ele><time>2026-04-25T21:54:00.000Z</time></trkpt>
        <trkpt lat="28.515538" lon="105.135815"><ele>630.1026</ele><time>2026-04-25T21:54:08.000Z</time></trkpt>
        <trkpt lat="28.515546" lon="105.135762"><ele>628.2326</ele><time>2026-04-25T21:54:18.000Z</time></trkpt>
        <trkpt lat="28.515609" lon="105.135722"><ele>628.35187</ele><time>2026-04-25T21:54:23.000Z</time></trkpt>
        <trkpt lat="28.515671" lon="105.135687"><ele>628.0083</ele><time>2026-04-25T21:54:25.000Z</time></trkpt>
        <trkpt lat="28.515733" lon="105.135646"><ele>627.2123</ele><time>2026-04-25T21:54:27.000Z</time></trkpt>
        <trkpt lat="28.515822" lon="105.135591"><ele>626.0445</ele><time>2026-04-25T21:54:29.000Z</time></trkpt>
        <trkpt lat="28.515863" lon="105.135565"><ele>625.4506</ele><time>2026-04-25T21:54:30.000Z</time></trkpt>
        <trkpt lat="28.515631" lon="105.135733"><ele>622.8203</ele><time>2026-04-25T21:54:40.000Z</time></trkpt>
        <trkpt lat="28.515577" lon="105.135733"><ele>622.8999</ele><time>2026-04-25T21:54:41.000Z</time></trkpt>
        <trkpt lat="28.515531" lon="105.135677"><ele>624.0298</ele><time>2026-04-25T21:54:48.000Z</time></trkpt>
        <trkpt lat="28.515507" lon="105.135633"><ele>625.6844</ele><time>2026-04-25T21:54:52.000Z</time></trkpt>
        <trkpt lat="28.5155" lon="105.135581"><ele>626.65125</ele><time>2026-04-25T21:54:57.000Z</time></trkpt>
        <trkpt lat="28.515501" lon="105.135528"><ele>629.5514</ele><time>2026-04-25T21:55:02.000Z</time></trkpt>
        <trkpt lat="28.515507" lon="105.135472"><ele>631.2915</ele><time>2026-04-25T21:55:09.000Z</time></trkpt>
        <trkpt lat="28.515545" lon="105.135444"><ele>633.0786</ele><time>2026-04-25T21:55:25.000Z</time></trkpt>
        <trkpt lat="28.515515" lon="105.1354"><ele>630.72614</ele><time>2026-04-25T21:56:58.000Z</time></trkpt>
        <trkpt lat="28.51547" lon="105.135416"><ele>628.88965</ele><time>2026-04-25T21:57:18.000Z</time></trkpt>
        <trkpt lat="28.515433" lon="105.135451"><ele>629.6857</ele><time>2026-04-25T21:57:59.000Z</time></trkpt>
        <trkpt lat="28.515373" lon="105.135454"><ele>628.75775</ele><time>2026-04-25T21:58:02.000Z</time></trkpt>
        <trkpt lat="28.515414" lon="105.135418"><ele>630.58734</ele><time>2026-04-25T21:58:08.000Z</time></trkpt>
        <trkpt lat="28.515368" lon="105.135401"><ele>635.4109</ele><time>2026-04-25T21:59:06.000Z</time></trkpt>
        <trkpt lat="28.515337" lon="105.135448"><ele>640.8797</ele><time>2026-04-25T21:59:40.000Z</time></trkpt>
        <trkpt lat="28.515375" lon="105.135411"><ele>641.0618</ele><time>2026-04-25T21:59:53.000Z</time></trkpt>
        <trkpt lat="28.515312" lon="105.135416"><ele>642.2607</ele><time>2026-04-25T21:59:57.000Z</time></trkpt>
        <trkpt lat="28.515311" lon="105.135359"><ele>646.7878</ele><time>2026-04-25T22:00:21.000Z</time></trkpt>
        <trkpt lat="28.515353" lon="105.135333"><ele>648.4529</ele><time>2026-04-25T22:00:32.000Z</time></trkpt>
        <trkpt lat="28.515311" lon="105.135364"><ele>649.01575</ele><time>2026-04-25T22:00:36.000Z</time></trkpt>
        <trkpt lat="28.515223" lon="105.135329"><ele>637.08813</ele><time>2026-04-25T22:01:05.000Z</time></trkpt>
        <trkpt lat="28.515331" lon="105.135341"><ele>659.9271</ele><time>2026-04-25T22:01:06.000Z</time></trkpt>
        <trkpt lat="28.515299" lon="105.135299"><ele>663.2639</ele><time>2026-04-25T22:01:17.000Z</time></trkpt>
        <trkpt lat="28.515252" lon="105.135303"><ele>667.14264</ele><time>2026-04-25T22:01:58.000Z</time></trkpt>
        <trkpt lat="28.515204" lon="105.135289"><ele>668.1346</ele><time>2026-04-25T22:02:13.000Z</time></trkpt>
        <trkpt lat="28.515155" lon="105.135289"><ele>671.7985</ele><time>2026-04-25T22:02:22.000Z</time></trkpt>
        <trkpt lat="28.515107" lon="105.135287"><ele>673.25183</ele><time>2026-04-25T22:02:28.000Z</time></trkpt>
        <trkpt lat="28.515062" lon="105.135295"><ele>675.5178</ele><time>2026-04-25T22:02:38.000Z</time></trkpt>
        <trkpt lat="28.515055" lon="105.135362"><ele>675.0552</ele><time>2026-04-25T22:02:49.000Z</time></trkpt>
        <trkpt lat="28.515013" lon="105.135392"><ele>675.05597</ele><time>2026-04-25T22:03:00.000Z</time></trkpt>
        <trkpt lat="28.51497" lon="105.135375"><ele>676.0308</ele><time>2026-04-25T22:03:09.000Z</time></trkpt>
        <trkpt lat="28.514924" lon="105.135371"><ele>677.3217</ele><time>2026-04-25T22:03:14.000Z</time></trkpt>
        <trkpt lat="28.51487" lon="105.13537"><ele>677.9438</ele><time>2026-04-25T22:03:19.000Z</time></trkpt>
        <trkpt lat="28.514814" lon="105.135363"><ele>678.57263</ele><time>2026-04-25T22:03:24.000Z</time></trkpt>
        <trkpt lat="28.514766" lon="105.135358"><ele>679.3911</ele><time>2026-04-25T22:03:30.000Z</time></trkpt>
        <trkpt lat="28.51472" lon="105.135361"><ele>679.11395</ele><time>2026-04-25T22:03:35.000Z</time></trkpt>
        <trkpt lat="28.514682" lon="105.135391"><ele>679.1768</ele><time>2026-04-25T22:03:48.000Z</time></trkpt>
        <trkpt lat="28.514711" lon="105.135431"><ele>681.1151</ele><time>2026-04-25T22:03:54.000Z</time></trkpt>
        <trkpt lat="28.514741" lon="105.13547"><ele>683.233</ele><time>2026-04-25T22:04:08.000Z</time></trkpt>
        <trkpt lat="28.514787" lon="105.135488"><ele>684.29767</ele><time>2026-04-25T22:04:18.000Z</time></trkpt>
        <trkpt lat="28.514834" lon="105.135507"><ele>688.6316</ele><time>2026-04-25T22:04:27.000Z</time></trkpt>
        <trkpt lat="28.514882" lon="105.135515"><ele>689.4313</ele><time>2026-04-25T22:04:33.000Z</time></trkpt>
        <trkpt lat="28.51494" lon="105.135512"><ele>690.071</ele><time>2026-04-25T22:04:39.000Z</time></trkpt>
        <trkpt lat="28.514989" lon="105.135508"><ele>690.6034</ele><time>2026-04-25T22:04:44.000Z</time></trkpt>
        <trkpt lat="28.515041" lon="105.135515"><ele>690.73096</ele><time>2026-04-25T22:04:49.000Z</time></trkpt>
        <trkpt lat="28.515086" lon="105.135526"><ele>691.21</ele><time>2026-04-25T22:04:54.000Z</time></trkpt>
        <trkpt lat="28.515139" lon="105.135531"><ele>690.4684</ele><time>2026-04-25T22:04:59.000Z</time></trkpt>
        <trkpt lat="28.515187" lon="105.135541"><ele>689.0233</ele><time>2026-04-25T22:05:06.000Z</time></trkpt>
        <trkpt lat="28.515158" lon="105.135502"><ele>686.9387</ele><time>2026-04-25T22:05:20.000Z</time></trkpt>
        <trkpt lat="28.515108" lon="105.135476"><ele>686.2807</ele><time>2026-04-25T22:05:36.000Z</time></trkpt>
        <trkpt lat="28.515061" lon="105.135478"><ele>685.3782</ele><time>2026-04-25T22:05:40.000Z</time></trkpt>
        <trkpt lat="28.515008" lon="105.135477"><ele>685.05566</ele><time>2026-04-25T22:05:45.000Z</time></trkpt>
        <trkpt lat="28.514959" lon="105.13548"><ele>685.31903</ele><time>2026-04-25T22:05:50.000Z</time></trkpt>
        <trkpt lat="28.514913" lon="105.135461"><ele>685.2971</ele><time>2026-04-25T22:05:58.000Z</time></trkpt>
        <trkpt lat="28.514863" lon="105.135445"><ele>685.92993</ele><time>2026-04-25T22:06:04.000Z</time></trkpt>
        <trkpt lat="28.514818" lon="105.135441"><ele>684.8045</ele><time>2026-04-25T22:06:12.000Z</time></trkpt>
        <trkpt lat="28.514771" lon="105.135432"><ele>682.0163</ele><time>2026-04-25T22:06:19.000Z</time></trkpt>
        <trkpt lat="28.51473" lon="105.135405"><ele>680.3678</ele><time>2026-04-25T22:06:24.000Z</time></trkpt>
        <trkpt lat="28.514683" lon="105.135404"><ele>683.39496</ele><time>2026-04-25T22:08:09.000Z</time></trkpt>
        <trkpt lat="28.514638" lon="105.135393"><ele>682.6943</ele><time>2026-04-25T22:08:15.000Z</time></trkpt>
        <trkpt lat="28.51458" lon="105.135359"><ele>681.8244</ele><time>2026-04-25T22:08:31.000Z</time></trkpt>
        <trkpt lat="28.514536" lon="105.13534"><ele>681.9532</ele><time>2026-04-25T22:09:00.000Z</time></trkpt>
        <trkpt lat="28.514486" lon="105.135322"><ele>679.0318</ele><time>2026-04-25T22:09:08.000Z</time></trkpt>
        <trkpt lat="28.514445" lon="105.1353"><ele>679.37854</ele><time>2026-04-25T22:09:13.000Z</time></trkpt>
        <trkpt lat="28.514402" lon="105.135273"><ele>677.55896</ele><time>2026-04-25T22:09:19.000Z</time></trkpt>
        <trkpt lat="28.514369" lon="105.135233"><ele>674.9171</ele><time>2026-04-25T22:09:26.000Z</time></trkpt>
        <trkpt lat="28.514329" lon="105.135265"><ele>674.5441</ele><time>2026-04-25T22:09:29.000Z</time></trkpt>
        <trkpt lat="28.514293" lon="105.135232"><ele>675.34106</ele><time>2026-04-25T22:09:31.000Z</time></trkpt>
        <trkpt lat="28.514249" lon="105.13522"><ele>673.3424</ele><time>2026-04-25T22:09:36.000Z</time></trkpt>
        <trkpt lat="28.514194" lon="105.135204"><ele>673.0819</ele><time>2026-04-25T22:09:43.000Z</time></trkpt>
        <trkpt lat="28.514145" lon="105.135186"><ele>673.3152</ele><time>2026-04-25T22:09:48.000Z</time></trkpt>
        <trkpt lat="28.514088" lon="105.135175"><ele>673.7885</ele><time>2026-04-25T22:09:53.000Z</time></trkpt>
        <trkpt lat="28.514042" lon="105.135156"><ele>672.4598</ele><time>2026-04-25T22:09:59.000Z</time></trkpt>
        <trkpt lat="28.513997" lon="105.135151"><ele>671.1849</ele><time>2026-04-25T22:10:05.000Z</time></trkpt>
        <trkpt lat="28.513947" lon="105.135142"><ele>672.4701</ele><time>2026-04-25T22:10:11.000Z</time></trkpt>
        <trkpt lat="28.513898" lon="105.135125"><ele>668.27124</ele><time>2026-04-25T22:10:32.000Z</time></trkpt>
        <trkpt lat="28.513853" lon="105.13512"><ele>666.1693</ele><time>2026-04-25T22:10:36.000Z</time></trkpt>
        <trkpt lat="28.513805" lon="105.13511"><ele>666.529</ele><time>2026-04-25T22:10:42.000Z</time></trkpt>
        <trkpt lat="28.513763" lon="105.135082"><ele>665.8787</ele><time>2026-04-25T22:10:45.000Z</time></trkpt>
        <trkpt lat="28.513718" lon="105.135048"><ele>666.37787</ele><time>2026-04-25T22:10:51.000Z</time></trkpt>
        <trkpt lat="28.513668" lon="105.135042"><ele>667.2699</ele><time>2026-04-25T22:10:57.000Z</time></trkpt>
        <trkpt lat="28.513623" lon="105.135028"><ele>668.48016</ele><time>2026-04-25T22:11:01.000Z</time></trkpt>
        <trkpt lat="28.513575" lon="105.135018"><ele>667.12573</ele><time>2026-04-25T22:11:06.000Z</time></trkpt>
        <trkpt lat="28.513521" lon="105.135024"><ele>666.582</ele><time>2026-04-25T22:11:11.000Z</time></trkpt>
        <trkpt lat="28.513472" lon="105.135029"><ele>666.3457</ele><time>2026-04-25T22:11:21.000Z</time></trkpt>
        <trkpt lat="28.513416" lon="105.135024"><ele>667.56335</ele><time>2026-04-25T22:11:27.000Z</time></trkpt>
        <trkpt lat="28.513365" lon="105.135029"><ele>666.59735</ele><time>2026-04-25T22:11:31.000Z</time></trkpt>
        <trkpt lat="28.513317" lon="105.135032"><ele>664.48346</ele><time>2026-04-25T22:11:36.000Z</time></trkpt>
        <trkpt lat="28.513268" lon="105.13503"><ele>664.60065</ele><time>2026-04-25T22:11:41.000Z</time></trkpt>
        <trkpt lat="28.513212" lon="105.135035"><ele>663.09674</ele><time>2026-04-25T22:11:47.000Z</time></trkpt>
        <trkpt lat="28.513168" lon="105.135019"><ele>662.3131</ele><time>2026-04-25T22:11:51.000Z</time></trkpt>
        <trkpt lat="28.513137" lon="105.134973"><ele>663.2742</ele><time>2026-04-25T22:11:56.000Z</time></trkpt>
        <trkpt lat="28.513102" lon="105.134935"><ele>664.96185</ele><time>2026-04-25T22:12:02.000Z</time></trkpt>
        <trkpt lat="28.513068" lon="105.134894"><ele>665.91473</ele><time>2026-04-25T22:12:07.000Z</time></trkpt>
        <trkpt lat="28.513021" lon="105.134868"><ele>665.2627</ele><time>2026-04-25T22:12:14.000Z</time></trkpt>
        <trkpt lat="28.512973" lon="105.134855"><ele>663.0876</ele><time>2026-04-25T22:12:19.000Z</time></trkpt>
        <trkpt lat="28.51292" lon="105.134835"><ele>663.1042</ele><time>2026-04-25T22:12:25.000Z</time></trkpt>
        <trkpt lat="28.512876" lon="105.134807"><ele>662.1553</ele><time>2026-04-25T22:12:30.000Z</time></trkpt>
        <trkpt lat="28.512827" lon="105.134775"><ele>661.17706</ele><time>2026-04-25T22:12:36.000Z</time></trkpt>
        <trkpt lat="28.512779" lon="105.134708"><ele>665.16815</ele><time>2026-04-25T22:12:40.000Z</time></trkpt>
        <trkpt lat="28.512751" lon="105.134668"><ele>665.15704</ele><time>2026-04-25T22:12:45.000Z</time></trkpt>
        <trkpt lat="28.512724" lon="105.134616"><ele>666.5921</ele><time>2026-04-25T22:12:52.000Z</time></trkpt>
        <trkpt lat="28.512698" lon="105.134571"><ele>666.22894</ele><time>2026-04-25T22:12:59.000Z</time></trkpt>
        <trkpt lat="28.512672" lon="105.134524"><ele>665.2653</ele><time>2026-04-25T22:13:05.000Z</time></trkpt>
        <trkpt lat="28.512636" lon="105.134494"><ele>666.64716</ele><time>2026-04-25T22:13:11.000Z</time></trkpt>
        <trkpt lat="28.512589" lon="105.134485"><ele>668.10254</ele><time>2026-04-25T22:13:16.000Z</time></trkpt>
        <trkpt lat="28.512555" lon="105.134445"><ele>668.4609</ele><time>2026-04-25T22:13:24.000Z</time></trkpt>
        <trkpt lat="28.512509" lon="105.134433"><ele>668.8518</ele><time>2026-04-25T22:13:28.000Z</time></trkpt>
        <trkpt lat="28.512464" lon="105.134448"><ele>669.6414</ele><time>2026-04-25T22:13:34.000Z</time></trkpt>
        <trkpt lat="28.512415" lon="105.134445"><ele>671.8172</ele><time>2026-04-25T22:13:39.000Z</time></trkpt>
        <trkpt lat="28.512365" lon="105.134438"><ele>671.4348</ele><time>2026-04-25T22:13:45.000Z</time></trkpt>
        <trkpt lat="28.512313" lon="105.13443"><ele>672.3962</ele><time>2026-04-25T22:13:50.000Z</time></trkpt>
        <trkpt lat="28.512263" lon="105.134442"><ele>673.8417</ele><time>2026-04-25T22:13:55.000Z</time></trkpt>
        <trkpt lat="28.512271" lon="105.134498"><ele>673.12445</ele><time>2026-04-25T22:14:05.000Z</time></trkpt>
        <trkpt lat="28.512299" lon="105.134543"><ele>672.79254</ele><time>2026-04-25T22:14:15.000Z</time></trkpt>
        <trkpt lat="28.512324" lon="105.134586"><ele>675.07166</ele><time>2026-04-25T22:14:19.000Z</time></trkpt>
        <trkpt lat="28.51234" lon="105.134645"><ele>675.75574</ele><time>2026-04-25T22:14:23.000Z</time></trkpt>
        <trkpt lat="28.512339" lon="105.134703"><ele>677.1444</ele><time>2026-04-25T22:14:27.000Z</time></trkpt>
        <trkpt lat="28.512354" lon="105.134758"><ele>677.1467</ele><time>2026-04-25T22:14:32.000Z</time></trkpt>
        <trkpt lat="28.51238" lon="105.134805"><ele>678.0568</ele><time>2026-04-25T22:14:36.000Z</time></trkpt>
        <trkpt lat="28.512412" lon="105.134842"><ele>675.66846</ele><time>2026-04-25T22:14:42.000Z</time></trkpt>
        <trkpt lat="28.512446" lon="105.134878"><ele>676.52814</ele><time>2026-04-25T22:14:47.000Z</time></trkpt>
        <trkpt lat="28.51247" lon="105.134925"><ele>677.7596</ele><time>2026-04-25T22:14:52.000Z</time></trkpt>
        <trkpt lat="28.512487" lon="105.134981"><ele>678.5774</ele><time>2026-04-25T22:14:56.000Z</time></trkpt>
        <trkpt lat="28.51248" lon="105.135039"><ele>679.0196</ele><time>2026-04-25T22:14:59.000Z</time></trkpt>
        <trkpt lat="28.512458" lon="105.135086"><ele>679.6593</ele><time>2026-04-25T22:15:03.000Z</time></trkpt>
        <trkpt lat="28.512429" lon="105.135127"><ele>676.22595</ele><time>2026-04-25T22:15:12.000Z</time></trkpt>
        <trkpt lat="28.512404" lon="105.135172"><ele>675.97345</ele><time>2026-04-25T22:15:17.000Z</time></trkpt>
        <trkpt lat="28.512367" lon="105.135214"><ele>675.4626</ele><time>2026-04-25T22:15:24.000Z</time></trkpt>
        <trkpt lat="28.512319" lon="105.13525"><ele>675.1409</ele><time>2026-04-25T22:15:29.000Z</time></trkpt>
        <trkpt lat="28.512277" lon="105.135273"><ele>674.12274</ele><time>2026-04-25T22:15:34.000Z</time></trkpt>
        <trkpt lat="28.512228" lon="105.135274"><ele>671.0114</ele><time>2026-04-25T22:15:40.000Z</time></trkpt>
        <trkpt lat="28.512183" lon="105.135288"><ele>670.9381</ele><time>2026-04-25T22:15:45.000Z</time></trkpt>
        <trkpt lat="28.51216" lon="105.135336"><ele>672.0612</ele><time>2026-04-25T22:15:53.000Z</time></trkpt>
        <trkpt lat="28.512139" lon="105.135381"><ele>670.6488</ele><time>2026-04-25T22:16:03.000Z</time></trkpt>
        <trkpt lat="28.512098" lon="105.135411"><ele>669.9589</ele><time>2026-04-25T22:16:08.000Z</time></trkpt>
        <trkpt lat="28.512054" lon="105.13545"><ele>670.32336</ele><time>2026-04-25T22:16:14.000Z</time></trkpt>
        <trkpt lat="28.51202" lon="105.135498"><ele>669.2076</ele><time>2026-04-25T22:16:20.000Z</time></trkpt>
        <trkpt lat="28.511975" lon="105.135529"><ele>669.2036</ele><time>2026-04-25T22:16:25.000Z</time></trkpt>
        <trkpt lat="28.511933" lon="105.135559"><ele>668.73663</ele><time>2026-04-25T22:16:32.000Z</time></trkpt>
        <trkpt lat="28.511906" lon="105.13561"><ele>668.7108</ele><time>2026-04-25T22:16:39.000Z</time></trkpt>
        <trkpt lat="28.51187" lon="105.135641"><ele>665.96936</ele><time>2026-04-25T22:16:53.000Z</time></trkpt>
        <trkpt lat="28.51185" lon="105.135701"><ele>664.5177</ele><time>2026-04-25T22:17:01.000Z</time></trkpt>
        <trkpt lat="28.511815" lon="105.135744"><ele>661.65936</ele><time>2026-04-25T22:17:08.000Z</time></trkpt>
        <trkpt lat="28.511775" lon="105.135769"><ele>661.45447</ele><time>2026-04-25T22:17:13.000Z</time></trkpt>
        <trkpt lat="28.511727" lon="105.135786"><ele>658.64325</ele><time>2026-04-25T22:17:18.000Z</time></trkpt>
        <trkpt lat="28.511716" lon="105.135842"><ele>659.102</ele><time>2026-04-25T22:17:23.000Z</time></trkpt>
        <trkpt lat="28.511667" lon="105.135855"><ele>658.1279</ele><time>2026-04-25T22:17:36.000Z</time></trkpt>
        <trkpt lat="28.511714" lon="105.135837"><ele>660.23694</ele><time>2026-04-25T22:17:57.000Z</time></trkpt>
        <trkpt lat="28.511771" lon="105.135835"><ele>659.0411</ele><time>2026-04-25T22:18:02.000Z</time></trkpt>
        <trkpt lat="28.511821" lon="105.135821"><ele>659.12134</ele><time>2026-04-25T22:18:07.000Z</time></trkpt>
        <trkpt lat="28.511864" lon="105.135806"><ele>660.69977</ele><time>2026-04-25T22:18:13.000Z</time></trkpt>
        <trkpt lat="28.511917" lon="105.13579"><ele>661.2098</ele><time>2026-04-25T22:18:19.000Z</time></trkpt>
        <trkpt lat="28.511963" lon="105.135794"><ele>661.48083</ele><time>2026-04-25T22:18:24.000Z</time></trkpt>
        <trkpt lat="28.512018" lon="105.135792"><ele>662.25336</ele><time>2026-04-25T22:18:29.000Z</time></trkpt>
        <trkpt lat="28.512063" lon="105.135776"><ele>660.9264</ele><time>2026-04-25T22:18:35.000Z</time></trkpt>
        <trkpt lat="28.512071" lon="105.135704"><ele>661.34344</ele><time>2026-04-25T22:18:40.000Z</time></trkpt>
        <trkpt lat="28.512121" lon="105.13573"><ele>663.0361</ele><time>2026-04-25T22:18:52.000Z</time></trkpt>
        <trkpt lat="28.512167" lon="105.135737"><ele>665.11066</ele><time>2026-04-25T22:18:57.000Z</time></trkpt>
        <trkpt lat="28.512213" lon="105.135694"><ele>664.93024</ele><time>2026-04-25T22:19:04.000Z</time></trkpt>
        <trkpt lat="28.51225" lon="105.135652"><ele>665.5893</ele><time>2026-04-25T22:19:09.000Z</time></trkpt>
        <trkpt lat="28.512289" lon="105.135621"><ele>666.9838</ele><time>2026-04-25T22:19:14.000Z</time></trkpt>
        <trkpt lat="28.512319" lon="105.135578"><ele>667.0318</ele><time>2026-04-25T22:19:20.000Z</time></trkpt>
        <trkpt lat="28.512345" lon="105.135524"><ele>665.0961</ele><time>2026-04-25T22:20:08.000Z</time></trkpt>
        <trkpt lat="28.512399" lon="105.135503"><ele>667.5642</ele><time>2026-04-25T22:20:13.000Z</time></trkpt>
        <trkpt lat="28.512432" lon="105.135456"><ele>667.3763</ele><time>2026-04-25T22:20:19.000Z</time></trkpt>
        <trkpt lat="28.512467" lon="105.135418"><ele>668.08777</ele><time>2026-04-25T22:20:24.000Z</time></trkpt>
        <trkpt lat="28.512497" lon="105.135376"><ele>668.8408</ele><time>2026-04-25T22:20:29.000Z</time></trkpt>
        <trkpt lat="28.512533" lon="105.135343"><ele>669.1499</ele><time>2026-04-25T22:20:33.000Z</time></trkpt>
        <trkpt lat="28.512568" lon="105.1353"><ele>669.3149</ele><time>2026-04-25T22:20:40.000Z</time></trkpt>
        <trkpt lat="28.512604" lon="105.135269"><ele>669.11255</ele><time>2026-04-25T22:20:44.000Z</time></trkpt>
        <trkpt lat="28.512645" lon="105.135229"><ele>669.5686</ele><time>2026-04-25T22:20:49.000Z</time></trkpt>
        <trkpt lat="28.512666" lon="105.135181"><ele>670.7605</ele><time>2026-04-25T22:20:52.000Z</time></trkpt>
        <trkpt lat="28.512701" lon="105.135133"><ele>669.91174</ele><time>2026-04-25T22:20:56.000Z</time></trkpt>
        <trkpt lat="28.512725" lon="105.135086"><ele>668.5254</ele><time>2026-04-25T22:21:01.000Z</time></trkpt>
        <trkpt lat="28.512771" lon="105.135074"><ele>669.23846</ele><time>2026-04-25T22:21:04.000Z</time></trkpt>
        <trkpt lat="28.51282" lon="105.135084"><ele>670.0059</ele><time>2026-04-25T22:21:09.000Z</time></trkpt>
        <trkpt lat="28.512865" lon="105.135094"><ele>671.3556</ele><time>2026-04-25T22:21:13.000Z</time></trkpt>
        <trkpt lat="28.512911" lon="105.135081"><ele>663.4548</ele><time>2026-04-25T22:21:58.000Z</time></trkpt>
        <trkpt lat="28.512957" lon="105.135056"><ele>663.6026</ele><time>2026-04-25T22:22:03.000Z</time></trkpt>
        <trkpt lat="28.513008" lon="105.135042"><ele>663.51697</ele><time>2026-04-25T22:22:08.000Z</time></trkpt>
        <trkpt lat="28.513052" lon="105.135015"><ele>664.64984</ele><time>2026-04-25T22:22:14.000Z</time></trkpt>
        <trkpt lat="28.513102" lon="105.135016"><ele>666.9624</ele><time>2026-04-25T22:22:19.000Z</time></trkpt>
        <trkpt lat="28.513151" lon="105.135006"><ele>666.43555</ele><time>2026-04-25T22:22:25.000Z</time></trkpt>
        <trkpt lat="28.5132" lon="105.135014"><ele>666.8849</ele><time>2026-04-25T22:22:30.000Z</time></trkpt>
        <trkpt lat="28.513246" lon="105.135026"><ele>666.08026</ele><time>2026-04-25T22:22:36.000Z</time></trkpt>
        <trkpt lat="28.513296" lon="105.13502"><ele>665.5104</ele><time>2026-04-25T22:22:42.000Z</time></trkpt>
        <trkpt lat="28.513353" lon="105.13506"><ele>663.3972</ele><time>2026-04-25T22:22:46.000Z</time></trkpt>
        <trkpt lat="28.513319" lon="105.13502"><ele>662.6003</ele><time>2026-04-25T22:22:48.000Z</time></trkpt>
        <trkpt lat="28.513365" lon="105.135034"><ele>661.0975</ele><time>2026-04-25T22:22:57.000Z</time></trkpt>
        <trkpt lat="28.513412" lon="105.13503"><ele>660.4767</ele><time>2026-04-25T22:23:04.000Z</time></trkpt>
        <trkpt lat="28.513464" lon="105.135036"><ele>659.2242</ele><time>2026-04-25T22:23:11.000Z</time></trkpt>
        <trkpt lat="28.513512" lon="105.135042"><ele>658.03467</ele><time>2026-04-25T22:23:17.000Z</time></trkpt>
        <trkpt lat="28.513561" lon="105.135055"><ele>658.53467</ele><time>2026-04-25T22:23:26.000Z</time></trkpt>
        <trkpt lat="28.513608" lon="105.135059"><ele>658.6043</ele><time>2026-04-25T22:23:32.000Z</time></trkpt>
        <trkpt lat="28.513659" lon="105.135072"><ele>659.48236</ele><time>2026-04-25T22:23:37.000Z</time></trkpt>
        <trkpt lat="28.51371" lon="105.135082"><ele>659.7738</ele><time>2026-04-25T22:23:43.000Z</time></trkpt>
        <trkpt lat="28.513752" lon="105.135106"><ele>658.6819</ele><time>2026-04-25T22:23:49.000Z</time></trkpt>
        <trkpt lat="28.5138" lon="105.135124"><ele>658.2574</ele><time>2026-04-25T22:23:54.000Z</time></trkpt>
        <trkpt lat="28.513852" lon="105.135136"><ele>659.53467</ele><time>2026-04-25T22:24:00.000Z</time></trkpt>
        <trkpt lat="28.513901" lon="105.135147"><ele>659.9424</ele><time>2026-04-25T22:24:07.000Z</time></trkpt>
        <trkpt lat="28.513957" lon="105.135157"><ele>660.20355</ele><time>2026-04-25T22:24:13.000Z</time></trkpt>
        <trkpt lat="28.514009" lon="105.135169"><ele>661.9574</ele><time>2026-04-25T22:24:19.000Z</time></trkpt>
        <trkpt lat="28.514059" lon="105.135193"><ele>661.85126</ele><time>2026-04-25T22:24:25.000Z</time></trkpt>
        <trkpt lat="28.514105" lon="105.135203"><ele>661.79596</ele><time>2026-04-25T22:24:30.000Z</time></trkpt>
        <trkpt lat="28.514153" lon="105.135214"><ele>662.0515</ele><time>2026-04-25T22:24:36.000Z</time></trkpt>
        <trkpt lat="28.514196" lon="105.135237"><ele>662.42413</ele><time>2026-04-25T22:24:42.000Z</time></trkpt>
        <trkpt lat="28.514246" lon="105.13525"><ele>662.8978</ele><time>2026-04-25T22:24:47.000Z</time></trkpt>
        <trkpt lat="28.51429" lon="105.135263"><ele>663.508</ele><time>2026-04-25T22:24:52.000Z</time></trkpt>
        <trkpt lat="28.514334" lon="105.135282"><ele>666.4554</ele><time>2026-04-25T22:24:57.000Z</time></trkpt>
        <trkpt lat="28.514377" lon="105.135299"><ele>668.6815</ele><time>2026-04-25T22:25:02.000Z</time></trkpt>
        <trkpt lat="28.514423" lon="105.135329"><ele>669.9368</ele><time>2026-04-25T22:25:08.000Z</time></trkpt>
        <trkpt lat="28.514466" lon="105.135345"><ele>671.567</ele><time>2026-04-25T22:25:14.000Z</time></trkpt>
        <trkpt lat="28.514507" lon="105.135375"><ele>673.58734</ele><time>2026-04-25T22:25:20.000Z</time></trkpt>
        <trkpt lat="28.514555" lon="105.13539"><ele>674.93713</ele><time>2026-04-25T22:25:25.000Z</time></trkpt>
        <trkpt lat="28.514601" lon="105.135403"><ele>677.0745</ele><time>2026-04-25T22:25:32.000Z</time></trkpt>
        <trkpt lat="28.514655" lon="105.135412"><ele>677.9048</ele><time>2026-04-25T22:25:39.000Z</time></trkpt>
        <trkpt lat="28.514708" lon="105.135418"><ele>676.7201</ele><time>2026-04-25T22:25:45.000Z</time></trkpt>
        <trkpt lat="28.514773" lon="105.135423"><ele>676.1811</ele><time>2026-04-25T22:25:50.000Z</time></trkpt>
        <trkpt lat="28.51482" lon="105.135437"><ele>675.5642</ele><time>2026-04-25T22:25:55.000Z</time></trkpt>
        <trkpt lat="28.514866" lon="105.135445"><ele>674.3</ele><time>2026-04-25T22:25:58.000Z</time></trkpt>
        <trkpt lat="28.514917" lon="105.135442"><ele>674.39954</ele><time>2026-04-25T22:26:03.000Z</time></trkpt>
        <trkpt lat="28.514968" lon="105.135425"><ele>673.8795</ele><time>2026-04-25T22:26:09.000Z</time></trkpt>
        <trkpt lat="28.515015" lon="105.135414"><ele>673.93933</ele><time>2026-04-25T22:26:17.000Z</time></trkpt>
        <trkpt lat="28.515057" lon="105.135389"><ele>673.18054</ele><time>2026-04-25T22:26:24.000Z</time></trkpt>
        <trkpt lat="28.515103" lon="105.135378"><ele>673.03876</ele><time>2026-04-25T22:26:30.000Z</time></trkpt>
        <trkpt lat="28.515148" lon="105.135345"><ele>671.1502</ele><time>2026-04-25T22:26:38.000Z</time></trkpt>
        <trkpt lat="28.515194" lon="105.135331"><ele>670.27</ele><time>2026-04-25T22:26:46.000Z</time></trkpt>
        <trkpt lat="28.515239" lon="105.135326"><ele>669.58594</ele><time>2026-04-25T22:26:53.000Z</time></trkpt>
        <trkpt lat="28.515285" lon="105.13533"><ele>668.6446</ele><time>2026-04-25T22:27:06.000Z</time></trkpt>
        <trkpt lat="28.515329" lon="105.135308"><ele>665.26825</ele><time>2026-04-25T22:27:24.000Z</time></trkpt>
        <trkpt lat="28.515341" lon="105.135361"><ele>658.758</ele><time>2026-04-25T22:27:29.000Z</time></trkpt>
        <trkpt lat="28.515363" lon="105.135408"><ele>649.14453</ele><time>2026-04-25T22:27:39.000Z</time></trkpt>
        <trkpt lat="28.515392" lon="105.135449"><ele>642.3397</ele><time>2026-04-25T22:27:51.000Z</time></trkpt>
        <trkpt lat="28.515354" lon="105.135418"><ele>639.05743</ele><time>2026-04-25T22:29:58.000Z</time></trkpt>
        <trkpt lat="28.515397" lon="105.135397"><ele>637.5835</ele><time>2026-04-25T22:30:50.000Z</time></trkpt>
        <trkpt lat="28.515348" lon="105.135418"><ele>631.4828</ele><time>2026-04-25T22:32:08.000Z</time></trkpt>
        <trkpt lat="28.515376" lon="105.135368"><ele>634.3944</ele><time>2026-04-25T22:32:13.000Z</time></trkpt>
        <trkpt lat="28.515419" lon="105.135349"><ele>633.10187</ele><time>2026-04-25T22:32:27.000Z</time></trkpt>
        <trkpt lat="28.515434" lon="105.135404"><ele>629.5506</ele><time>2026-04-25T22:32:57.000Z</time></trkpt>
        <trkpt lat="28.515481" lon="105.135414"><ele>630.84186</ele><time>2026-04-25T22:33:09.000Z</time></trkpt>
        <trkpt lat="28.515501" lon="105.135467"><ele>629.5688</ele><time>2026-04-25T22:33:30.000Z</time></trkpt>
        <trkpt lat="28.51551" lon="105.135521"><ele>630.3252</ele><time>2026-04-25T22:33:36.000Z</time></trkpt>
        <trkpt lat="28.51554" lon="105.135569"><ele>628.7634</ele><time>2026-04-25T22:33:40.000Z</time></trkpt>
        <trkpt lat="28.515558" lon="105.135624"><ele>629.1705</ele><time>2026-04-25T22:33:46.000Z</time></trkpt>
        <trkpt lat="28.515587" lon="105.135669"><ele>629.3197</ele><time>2026-04-25T22:33:50.000Z</time></trkpt>
        <trkpt lat="28.515555" lon="105.135712"><ele>631.0312</ele><time>2026-04-25T22:35:54.000Z</time></trkpt>
        <trkpt lat="28.515454" lon="105.135708"><ele>622.02905</ele><time>2026-04-25T22:36:02.000Z</time></trkpt>
        <trkpt lat="28.515401" lon="105.135711"><ele>627.4098</ele><time>2026-04-25T22:36:09.000Z</time></trkpt>
        <trkpt lat="28.515456" lon="105.135726"><ele>627.28375</ele><time>2026-04-25T22:36:12.000Z</time></trkpt>
        <trkpt lat="28.515481" lon="105.135646"><ele>627.8007</ele><time>2026-04-25T22:36:23.000Z</time></trkpt>
        <trkpt lat="28.515452" lon="105.135689"><ele>628.4103</ele><time>2026-04-25T22:36:32.000Z</time></trkpt>
        <trkpt lat="28.515485" lon="105.135726"><ele>630.9431</ele><time>2026-04-25T22:36:51.000Z</time></trkpt>
        <trkpt lat="28.515446" lon="105.135753"><ele>628.6015</ele><time>2026-04-25T22:37:09.000Z</time></trkpt>
        <trkpt lat="28.515492" lon="105.13578"><ele>627.524</ele><time>2026-04-25T22:37:25.000Z</time></trkpt>
        <trkpt lat="28.515581" lon="105.135877"><ele>630.61584</ele><time>2026-04-25T22:41:13.000Z</time></trkpt>
        <trkpt lat="28.515598" lon="105.135811"><ele>632.0873</ele><time>2026-04-25T22:41:31.000Z</time></trkpt>
      </trkseg>
      <trkseg>
        <trkpt lat="28.513895" lon="105.134294"><ele>604.30615</ele><time>2026-04-25T22:51:34.000Z</time></trkpt>
        <trkpt lat="28.513849" lon="105.134312"><ele>604.8184</ele><time>2026-04-25T22:51:37.000Z</time></trkpt>
        <trkpt lat="28.5138" lon="105.134347"><ele>605.6217</ele><time>2026-04-25T22:51:41.000Z</time></trkpt>
        <trkpt lat="28.513667" lon="105.13437"><ele>607.6072</ele><time>2026-04-25T22:52:00.000Z</time></trkpt>
        <trkpt lat="28.513621" lon="105.134373"><ele>607.71</ele><time>2026-04-25T22:52:03.000Z</time></trkpt>
        <trkpt lat="28.513584" lon="105.134343"><ele>607.06586</ele><time>2026-04-25T22:52:09.000Z</time></trkpt>
        <trkpt lat="28.513549" lon="105.13431"><ele>605.78174</ele><time>2026-04-25T22:52:13.000Z</time></trkpt>
        <trkpt lat="28.513527" lon="105.134257"><ele>605.5663</ele><time>2026-04-25T22:52:18.000Z</time></trkpt>
        <trkpt lat="28.513503" lon="105.134208"><ele>603.88257</ele><time>2026-04-25T22:52:24.000Z</time></trkpt>
        <trkpt lat="28.513529" lon="105.134165"><ele>603.0529</ele><time>2026-04-25T22:52:28.000Z</time></trkpt>
        <trkpt lat="28.513533" lon="105.13411"><ele>603.565</ele><time>2026-04-25T22:52:33.000Z</time></trkpt>
        <trkpt lat="28.513522" lon="105.134041"><ele>602.05035</ele><time>2026-04-25T22:52:38.000Z</time></trkpt>
        <trkpt lat="28.513508" lon="105.133986"><ele>602.3972</ele><time>2026-04-25T22:52:42.000Z</time></trkpt>
        <trkpt lat="28.513515" lon="105.133926"><ele>602.23224</ele><time>2026-04-25T22:52:46.000Z</time></trkpt>
        <trkpt lat="28.513572" lon="105.133884"><ele>597.7568</ele><time>2026-04-25T22:52:50.000Z</time></trkpt>
        <trkpt lat="28.513594" lon="105.133823"><ele>600.64844</ele><time>2026-04-25T22:52:57.000Z</time></trkpt>
        <trkpt lat="28.513619" lon="105.133763"><ele>601.5838</ele><time>2026-04-25T22:53:03.000Z</time></trkpt>
        <trkpt lat="28.513609" lon="105.133703"><ele>601.8013</ele><time>2026-04-25T22:53:08.000Z</time></trkpt>
        <trkpt lat="28.513599" lon="105.133643"><ele>601.87177</ele><time>2026-04-25T22:53:14.000Z</time></trkpt>
        <trkpt lat="28.513566" lon="105.133606"><ele>602.90686</ele><time>2026-04-25T22:53:18.000Z</time></trkpt>
        <trkpt lat="28.513528" lon="105.133565"><ele>601.6768</ele><time>2026-04-25T22:53:22.000Z</time></trkpt>
        <trkpt lat="28.513479" lon="105.133555"><ele>602.3546</ele><time>2026-04-25T22:53:27.000Z</time></trkpt>
        <trkpt lat="28.513428" lon="105.133571"><ele>603.605</ele><time>2026-04-25T22:53:32.000Z</time></trkpt>
        <trkpt lat="28.513385" lon="105.133611"><ele>604.16156</ele><time>2026-04-25T22:53:37.000Z</time></trkpt>
        <trkpt lat="28.513348" lon="105.133642"><ele>605.2658</ele><time>2026-04-25T22:53:41.000Z</time></trkpt>
        <trkpt lat="28.513311" lon="105.133678"><ele>606.8658</ele><time>2026-04-25T22:53:46.000Z</time></trkpt>
        <trkpt lat="28.513251" lon="105.133698"><ele>606.6812</ele><time>2026-04-25T22:53:52.000Z</time></trkpt>
        <trkpt lat="28.513209" lon="105.133719"><ele>606.15576</ele><time>2026-04-25T22:53:58.000Z</time></trkpt>
        <trkpt lat="28.513168" lon="105.133746"><ele>604.80475</ele><time>2026-04-25T22:54:03.000Z</time></trkpt>
        <trkpt lat="28.513125" lon="105.133767"><ele>606.3662</ele><time>2026-04-25T22:54:07.000Z</time></trkpt>
        <trkpt lat="28.513082" lon="105.133792"><ele>606.16876</ele><time>2026-04-25T22:54:13.000Z</time></trkpt>
        <trkpt lat="28.51305" lon="105.13384"><ele>607.04175</ele><time>2026-04-25T22:54:18.000Z</time></trkpt>
        <trkpt lat="28.513004" lon="105.133826"><ele>606.93713</ele><time>2026-04-25T22:54:24.000Z</time></trkpt>
        <trkpt lat="28.512961" lon="105.133791"><ele>604.95795</ele><time>2026-04-25T22:54:28.000Z</time></trkpt>
        <trkpt lat="28.512948" lon="105.133734"><ele>605.60486</ele><time>2026-04-25T22:54:32.000Z</time></trkpt>
        <trkpt lat="28.512938" lon="105.133672"><ele>606.604</ele><time>2026-04-25T22:54:37.000Z</time></trkpt>
        <trkpt lat="28.512915" lon="105.133628"><ele>605.1344</ele><time>2026-04-25T22:54:43.000Z</time></trkpt>
        <trkpt lat="28.512884" lon="105.133588"><ele>606.1044</ele><time>2026-04-25T22:54:55.000Z</time></trkpt>
        <trkpt lat="28.512879" lon="105.133535"><ele>604.1438</ele><time>2026-04-25T22:55:00.000Z</time></trkpt>
        <trkpt lat="28.512885" lon="105.13346"><ele>600.79803</ele><time>2026-04-25T22:55:08.000Z</time></trkpt>
        <trkpt lat="28.512889" lon="105.133402"><ele>599.18207</ele><time>2026-04-25T22:55:12.000Z</time></trkpt>
        <trkpt lat="28.512865" lon="105.133333"><ele>595.27527</ele><time>2026-04-25T22:55:21.000Z</time></trkpt>
        <trkpt lat="28.512892" lon="105.133286"><ele>593.26733</ele><time>2026-04-25T22:55:27.000Z</time></trkpt>
        <trkpt lat="28.512861" lon="105.133247"><ele>586.052</ele><time>2026-04-25T22:55:34.000Z</time></trkpt>
        <trkpt lat="28.512893" lon="105.133196"><ele>579.99066</ele><time>2026-04-25T22:55:42.000Z</time></trkpt>
        <trkpt lat="28.512907" lon="105.13314"><ele>579.36127</ele><time>2026-04-25T22:55:46.000Z</time></trkpt>
        <trkpt lat="28.512894" lon="105.133088"><ele>579.8125</ele><time>2026-04-25T22:55:53.000Z</time></trkpt>
        <trkpt lat="28.51288" lon="105.133029"><ele>578.36523</ele><time>2026-04-25T22:55:58.000Z</time></trkpt>
        <trkpt lat="28.512871" lon="105.132967"><ele>579.8505</ele><time>2026-04-25T22:56:02.000Z</time></trkpt>
        <trkpt lat="28.512871" lon="105.132915"><ele>581.40576</ele><time>2026-04-25T22:56:06.000Z</time></trkpt>
        <trkpt lat="28.512907" lon="105.132877"><ele>580.32916</ele><time>2026-04-25T22:56:10.000Z</time></trkpt>
        <trkpt lat="28.512944" lon="105.132847"><ele>577.404</ele><time>2026-04-25T22:56:20.000Z</time></trkpt>
        <trkpt lat="28.512984" lon="105.132807"><ele>576.4326</ele><time>2026-04-25T22:56:26.000Z</time></trkpt>
        <trkpt lat="28.512989" lon="105.132754"><ele>573.59</ele><time>2026-04-25T22:56:30.000Z</time></trkpt>
        <trkpt lat="28.512983" lon="105.132695"><ele>574.7662</ele><time>2026-04-25T22:56:35.000Z</time></trkpt>
        <trkpt lat="28.512998" lon="105.132636"><ele>574.22284</ele><time>2026-04-25T22:56:39.000Z</time></trkpt>
        <trkpt lat="28.513001" lon="105.13258"><ele>570.44586</ele><time>2026-04-25T22:56:44.000Z</time></trkpt>
        <trkpt lat="28.513019" lon="105.132523"><ele>572.6043</ele><time>2026-04-25T22:56:48.000Z</time></trkpt>
        <trkpt lat="28.513032" lon="105.132464"><ele>573.8943</ele><time>2026-04-25T22:56:53.000Z</time></trkpt>
        <trkpt lat="28.513029" lon="105.132412"><ele>571.36523</ele><time>2026-04-25T22:57:02.000Z</time></trkpt>
        <trkpt lat="28.513039" lon="105.132362"><ele>569.2889</ele><time>2026-04-25T22:57:10.000Z</time></trkpt>
        <trkpt lat="28.513042" lon="105.132309"><ele>567.91125</ele><time>2026-04-25T22:57:20.000Z</time></trkpt>
        <trkpt lat="28.513083" lon="105.132268"><ele>562.7562</ele><time>2026-04-25T22:57:23.000Z</time></trkpt>
        <trkpt lat="28.513022" lon="105.132278"><ele>566.8204</ele><time>2026-04-25T22:57:24.000Z</time></trkpt>
        <trkpt lat="28.513059" lon="105.132248"><ele>566.2924</ele><time>2026-04-25T22:57:31.000Z</time></trkpt>
        <trkpt lat="28.513061" lon="105.132196"><ele>564.80774</ele><time>2026-04-25T22:58:01.000Z</time></trkpt>
        <trkpt lat="28.513093" lon="105.132155"><ele>565.367</ele><time>2026-04-25T22:58:06.000Z</time></trkpt>
        <trkpt lat="28.513044" lon="105.132148"><ele>564.3168</ele><time>2026-04-25T22:58:25.000Z</time></trkpt>
        <trkpt lat="28.513019" lon="105.132196"><ele>563.3425</ele><time>2026-04-25T22:58:31.000Z</time></trkpt>
        <trkpt lat="28.512972" lon="105.132222"><ele>562.04474</ele><time>2026-04-25T22:58:40.000Z</time></trkpt>
        <trkpt lat="28.512992" lon="105.132163"><ele>561.2255</ele><time>2026-04-25T22:58:52.000Z</time></trkpt>
        <trkpt lat="28.512999" lon="105.13211"><ele>560.24915</ele><time>2026-04-25T22:58:56.000Z</time></trkpt>
        <trkpt lat="28.513026" lon="105.132065"><ele>561.61224</ele><time>2026-04-25T22:59:02.000Z</time></trkpt>
        <trkpt lat="28.513074" lon="105.132054"><ele>561.03</ele><time>2026-04-25T22:59:06.000Z</time></trkpt>
        <trkpt lat="28.513106" lon="105.13201"><ele>561.68243</ele><time>2026-04-25T22:59:12.000Z</time></trkpt>
        <trkpt lat="28.513116" lon="105.131952"><ele>562.1215</ele><time>2026-04-25T22:59:16.000Z</time></trkpt>
        <trkpt lat="28.513128" lon="105.131899"><ele>560.72473</ele><time>2026-04-25T22:59:20.000Z</time></trkpt>
        <trkpt lat="28.513124" lon="105.131837"><ele>557.9643</ele><time>2026-04-25T22:59:27.000Z</time></trkpt>
        <trkpt lat="28.513139" lon="105.131784"><ele>556.2657</ele><time>2026-04-25T22:59:32.000Z</time></trkpt>
        <trkpt lat="28.513162" lon="105.131733"><ele>553.55164</ele><time>2026-04-25T22:59:40.000Z</time></trkpt>
        <trkpt lat="28.513173" lon="105.131679"><ele>552.0382</ele><time>2026-04-25T22:59:45.000Z</time></trkpt>
        <trkpt lat="28.513179" lon="105.131628"><ele>550.41016</ele><time>2026-04-25T22:59:52.000Z</time></trkpt>
        <trkpt lat="28.513214" lon="105.131587"><ele>550.4493</ele><time>2026-04-25T22:59:57.000Z</time></trkpt>
        <trkpt lat="28.513224" lon="105.131524"><ele>550.0458</ele><time>2026-04-25T23:00:03.000Z</time></trkpt>
        <trkpt lat="28.51321" lon="105.131456"><ele>548.7862</ele><time>2026-04-25T23:00:09.000Z</time></trkpt>
        <trkpt lat="28.513188" lon="105.131402"><ele>548.3548</ele><time>2026-04-25T23:00:13.000Z</time></trkpt>
        <trkpt lat="28.513193" lon="105.13135"><ele>550.3007</ele><time>2026-04-25T23:00:21.000Z</time></trkpt>
        <trkpt lat="28.513153" lon="105.131315"><ele>551.1489</ele><time>2026-04-25T23:00:26.000Z</time></trkpt>
        <trkpt lat="28.513109" lon="105.131265"><ele>550.9217</ele><time>2026-04-25T23:00:31.000Z</time></trkpt>
        <trkpt lat="28.513083" lon="105.131217"><ele>551.1127</ele><time>2026-04-25T23:00:37.000Z</time></trkpt>
        <trkpt lat="28.513073" lon="105.131158"><ele>549.7886</ele><time>2026-04-25T23:00:41.000Z</time></trkpt>
        <trkpt lat="28.513047" lon="105.131112"><ele>549.8622</ele><time>2026-04-25T23:00:45.000Z</time></trkpt>
        <trkpt lat="28.513015" lon="105.131056"><ele>551.29865</ele><time>2026-04-25T23:00:48.000Z</time></trkpt>
        <trkpt lat="28.513043" lon="105.131009"><ele>549.26385</ele><time>2026-04-25T23:00:55.000Z</time></trkpt>
        <trkpt lat="28.513083" lon="105.13096"><ele>546.56165</ele><time>2026-04-25T23:01:02.000Z</time></trkpt>
        <trkpt lat="28.51312" lon="105.130915"><ele>543.6694</ele><time>2026-04-25T23:01:07.000Z</time></trkpt>
        <trkpt lat="28.513152" lon="105.130877"><ele>544.09625</ele><time>2026-04-25T23:01:11.000Z</time></trkpt>
        <trkpt lat="28.513198" lon="105.13084"><ele>544.0876</ele><time>2026-04-25T23:01:16.000Z</time></trkpt>
        <trkpt lat="28.513177" lon="105.130784"><ele>541.9984</ele><time>2026-04-25T23:01:20.000Z</time></trkpt>
        <trkpt lat="28.513195" lon="105.130725"><ele>540.84155</ele><time>2026-04-25T23:01:27.000Z</time></trkpt>
        <trkpt lat="28.513232" lon="105.130694"><ele>537.92096</ele><time>2026-04-25T23:01:36.000Z</time></trkpt>
        <trkpt lat="28.513287" lon="105.130677"><ele>531.1741</ele><time>2026-04-25T23:01:45.000Z</time></trkpt>
        <trkpt lat="28.513342" lon="105.130659"><ele>530.23486</ele><time>2026-04-25T23:01:54.000Z</time></trkpt>
        <trkpt lat="28.513403" lon="105.130679"><ele>532.90314</ele><time>2026-04-25T23:01:58.000Z</time></trkpt>
        <trkpt lat="28.513451" lon="105.130654"><ele>532.7357</ele><time>2026-04-25T23:02:02.000Z</time></trkpt>
        <trkpt lat="28.513494" lon="105.130636"><ele>533.8229</ele><time>2026-04-25T23:02:07.000Z</time></trkpt>
        <trkpt lat="28.513531" lon="105.130604"><ele>532.72424</ele><time>2026-04-25T23:02:10.000Z</time></trkpt>
        <trkpt lat="28.513569" lon="105.130575"><ele>532.71356</ele><time>2026-04-25T23:02:14.000Z</time></trkpt>
        <trkpt lat="28.513609" lon="105.130534"><ele>531.8132</ele><time>2026-04-25T23:02:19.000Z</time></trkpt>
        <trkpt lat="28.51365" lon="105.1305"><ele>529.70325</ele><time>2026-04-25T23:02:23.000Z</time></trkpt>
        <trkpt lat="28.513688" lon="105.130455"><ele>529.28296</ele><time>2026-04-25T23:02:28.000Z</time></trkpt>
        <trkpt lat="28.513712" lon="105.130402"><ele>527.95844</ele><time>2026-04-25T23:02:33.000Z</time></trkpt>
        <trkpt lat="28.513749" lon="105.130371"><ele>526.29376</ele><time>2026-04-25T23:02:37.000Z</time></trkpt>
        <trkpt lat="28.513767" lon="105.130314"><ele>519.6492</ele><time>2026-04-25T23:02:50.000Z</time></trkpt>
        <trkpt lat="28.513785" lon="105.130261"><ele>517.168</ele><time>2026-04-25T23:02:54.000Z</time></trkpt>
        <trkpt lat="28.513814" lon="105.130202"><ele>517.0676</ele><time>2026-04-25T23:02:58.000Z</time></trkpt>
        <trkpt lat="28.513844" lon="105.130157"><ele>517.49066</ele><time>2026-04-25T23:03:04.000Z</time></trkpt>
        <trkpt lat="28.513884" lon="105.130125"><ele>513.10077</ele><time>2026-04-25T23:03:10.000Z</time></trkpt>
        <trkpt lat="28.513904" lon="105.130066"><ele>513.5503</ele><time>2026-04-25T23:03:17.000Z</time></trkpt>
        <trkpt lat="28.513926" lon="105.130004"><ele>515.6274</ele><time>2026-04-25T23:03:22.000Z</time></trkpt>
        <trkpt lat="28.513956" lon="105.129964"><ele>512.64923</ele><time>2026-04-25T23:03:27.000Z</time></trkpt>
        <trkpt lat="28.513974" lon="105.129916"><ele>511.86908</ele><time>2026-04-25T23:03:31.000Z</time></trkpt>
        <trkpt lat="28.514013" lon="105.129863"><ele>511.23087</ele><time>2026-04-25T23:03:38.000Z</time></trkpt>
        <trkpt lat="28.514024" lon="105.129809"><ele>511.46777</ele><time>2026-04-25T23:03:43.000Z</time></trkpt>
        <trkpt lat="28.514042" lon="105.129762"><ele>509.242</ele><time>2026-04-25T23:03:47.000Z</time></trkpt>
        <trkpt lat="28.514071" lon="105.129708"><ele>506.91586</ele><time>2026-04-25T23:03:52.000Z</time></trkpt>
        <trkpt lat="28.514081" lon="105.129657"><ele>504.5627</ele><time>2026-04-25T23:04:02.000Z</time></trkpt>
        <trkpt lat="28.514127" lon="105.129642"><ele>506.50235</ele><time>2026-04-25T23:04:08.000Z</time></trkpt>
        <trkpt lat="28.514172" lon="105.129672"><ele>507.30026</ele><time>2026-04-25T23:04:14.000Z</time></trkpt>
        <trkpt lat="28.514224" lon="105.129694"><ele>506.6093</ele><time>2026-04-25T23:04:18.000Z</time></trkpt>
        <trkpt lat="28.51427" lon="105.129713"><ele>508.12915</ele><time>2026-04-25T23:04:23.000Z</time></trkpt>
        <trkpt lat="28.514292" lon="105.129761"><ele>509.38263</ele><time>2026-04-25T23:05:10.000Z</time></trkpt>
        <trkpt lat="28.514272" lon="105.129712"><ele>508.86325</ele><time>2026-04-25T23:05:26.000Z</time></trkpt>
      </trkseg>
  </trk>
</gpx>